<?xml version="1.0" encoding="UTF-8" standalone="no" ?>
<gpx xmlns="http://www.topografix.com/GPX/1/1" xmlns:xsi="http://www.w3.org/2001/XMLSchema-instance" xsi:schemaLocation="http://www.topografix.com/GPX/1/1 http://www.topografix.com/GPX/1/1/gpx.xsd" version="1.1" creator="VisuGPX - https://www.visugpx.com">
  <metadata>
    <name>Parcours 8 Km</name>
    <desc><![CDATA[Parcours de 8 km envisagé pour la randonnée du pardon de Lochrist.]]></desc>
  </metadata>
  <trk>
    <name><![CDATA[Parcours 8 Km_1]]></name>
    <trkseg>
      <trkpt lat="47.90439" lon="-3.91966">
        <ele>77</ele>
        <time>2017-05-30T15:48:53Z</time>
      </trkpt>
      <trkpt lat="47.90469" lon="-3.91951">
        <ele>78</ele>
        <time>2017-05-30T15:48:58Z</time>
      </trkpt>
      <trkpt lat="47.90447" lon="-3.9198">
        <ele>77</ele>
        <time>2017-05-30T15:49:03Z</time>
      </trkpt>
      <trkpt lat="47.90443" lon="-3.91987">
        <ele>77</ele>
        <time>2017-05-30T15:49:08Z</time>
      </trkpt>
      <trkpt lat="47.90451" lon="-3.92003">
        <ele>77</ele>
        <time>2017-05-30T15:49:18Z</time>
      </trkpt>
      <trkpt lat="47.90452" lon="-3.92008">
        <ele>77</ele>
        <time>2017-05-30T15:49:23Z</time>
      </trkpt>
      <trkpt lat="47.90457" lon="-3.92048">
        <ele>76</ele>
        <time>2017-05-30T15:49:38Z</time>
      </trkpt>
      <trkpt lat="47.90461" lon="-3.92056">
        <ele>76</ele>
        <time>2017-05-30T15:49:44Z</time>
      </trkpt>
      <trkpt lat="47.90471" lon="-3.92073">
        <ele>75</ele>
        <time>2017-05-30T15:49:53Z</time>
      </trkpt>
      <trkpt lat="47.90471" lon="-3.92087">
        <ele>75</ele>
        <time>2017-05-30T15:50:03Z</time>
      </trkpt>
      <trkpt lat="47.90472" lon="-3.92094">
        <ele>75</ele>
        <time>2017-05-30T15:50:08Z</time>
      </trkpt>
      <trkpt lat="47.9048" lon="-3.92109">
        <ele>74</ele>
        <time>2017-05-30T15:50:18Z</time>
      </trkpt>
      <trkpt lat="47.90484" lon="-3.92117">
        <ele>74</ele>
        <time>2017-05-30T15:50:23Z</time>
      </trkpt>
      <trkpt lat="47.90493" lon="-3.9213">
        <ele>74</ele>
        <time>2017-05-30T15:50:33Z</time>
      </trkpt>
      <trkpt lat="47.90496" lon="-3.92135">
        <ele>74</ele>
        <time>2017-05-30T15:50:38Z</time>
      </trkpt>
      <trkpt lat="47.90507" lon="-3.92153">
        <ele>74</ele>
        <time>2017-05-30T15:50:48Z</time>
      </trkpt>
      <trkpt lat="47.90509" lon="-3.92159">
        <ele>73</ele>
        <time>2017-05-30T15:50:53Z</time>
      </trkpt>
      <trkpt lat="47.90526" lon="-3.92178">
        <ele>73</ele>
        <time>2017-05-30T15:51:08Z</time>
      </trkpt>
      <trkpt lat="47.9053" lon="-3.92186">
        <ele>73</ele>
        <time>2017-05-30T15:51:13Z</time>
      </trkpt>
      <trkpt lat="47.90533" lon="-3.92188">
        <ele>73</ele>
        <time>2017-05-30T15:51:18Z</time>
      </trkpt>
      <trkpt lat="47.90537" lon="-3.92194">
        <ele>73</ele>
        <time>2017-05-30T15:51:23Z</time>
      </trkpt>
      <trkpt lat="47.90545" lon="-3.92202">
        <ele>73</ele>
        <time>2017-05-30T15:51:28Z</time>
      </trkpt>
      <trkpt lat="47.90555" lon="-3.9221">
        <ele>73</ele>
        <time>2017-05-30T15:51:33Z</time>
      </trkpt>
      <trkpt lat="47.90567" lon="-3.92217">
        <ele>73</ele>
        <time>2017-05-30T15:51:43Z</time>
      </trkpt>
      <trkpt lat="47.9057" lon="-3.92222">
        <ele>73</ele>
        <time>2017-05-30T15:51:48Z</time>
      </trkpt>
      <trkpt lat="47.90586" lon="-3.92236">
        <ele>73</ele>
        <time>2017-05-30T15:52:03Z</time>
      </trkpt>
      <trkpt lat="47.90591" lon="-3.92239">
        <ele>73</ele>
        <time>2017-05-30T15:52:08Z</time>
      </trkpt>
      <trkpt lat="47.90599" lon="-3.92241">
        <ele>73</ele>
        <time>2017-05-30T15:52:13Z</time>
      </trkpt>
      <trkpt lat="47.90623" lon="-3.92251">
        <ele>73</ele>
        <time>2017-05-30T15:52:33Z</time>
      </trkpt>
      <trkpt lat="47.90628" lon="-3.92256">
        <ele>73</ele>
        <time>2017-05-30T15:52:38Z</time>
      </trkpt>
      <trkpt lat="47.90635" lon="-3.92261">
        <ele>73</ele>
        <time>2017-05-30T15:52:43Z</time>
      </trkpt>
      <trkpt lat="47.90646" lon="-3.92271">
        <ele>73</ele>
        <time>2017-05-30T15:52:53Z</time>
      </trkpt>
      <trkpt lat="47.90668" lon="-3.9228">
        <ele>73</ele>
        <time>2017-05-30T15:53:13Z</time>
      </trkpt>
      <trkpt lat="47.90687" lon="-3.92296">
        <ele>73</ele>
        <time>2017-05-30T15:53:23Z</time>
      </trkpt>
      <trkpt lat="47.90696" lon="-3.92299">
        <ele>73</ele>
        <time>2017-05-30T15:53:28Z</time>
      </trkpt>
      <trkpt lat="47.90705" lon="-3.92294">
        <ele>73</ele>
        <time>2017-05-30T15:53:38Z</time>
      </trkpt>
      <trkpt lat="47.90711" lon="-3.92299">
        <ele>73</ele>
        <time>2017-05-30T15:53:43Z</time>
      </trkpt>
      <trkpt lat="47.90715" lon="-3.92304">
        <ele>73</ele>
        <time>2017-05-30T15:53:48Z</time>
      </trkpt>
      <trkpt lat="47.9072" lon="-3.92311">
        <ele>73</ele>
        <time>2017-05-30T15:53:58Z</time>
      </trkpt>
      <trkpt lat="47.90729" lon="-3.92322">
        <ele>73</ele>
        <time>2017-05-30T15:54:08Z</time>
      </trkpt>
      <trkpt lat="47.90737" lon="-3.92326">
        <ele>73</ele>
        <time>2017-05-30T15:54:13Z</time>
      </trkpt>
      <trkpt lat="47.90747" lon="-3.92331">
        <ele>73</ele>
        <time>2017-05-30T15:54:18Z</time>
      </trkpt>
      <trkpt lat="47.90754" lon="-3.92333">
        <ele>72</ele>
        <time>2017-05-30T15:54:23Z</time>
      </trkpt>
      <trkpt lat="47.90759" lon="-3.92332">
        <ele>72</ele>
        <time>2017-05-30T15:54:28Z</time>
      </trkpt>
      <trkpt lat="47.90766" lon="-3.92333">
        <ele>72</ele>
        <time>2017-05-30T15:54:33Z</time>
      </trkpt>
      <trkpt lat="47.90777" lon="-3.92332">
        <ele>72</ele>
        <time>2017-05-30T15:54:43Z</time>
      </trkpt>
      <trkpt lat="47.90787" lon="-3.92335">
        <ele>72</ele>
        <time>2017-05-30T15:54:48Z</time>
      </trkpt>
      <trkpt lat="47.90805" lon="-3.92333">
        <ele>71</ele>
        <time>2017-05-30T15:54:58Z</time>
      </trkpt>
      <trkpt lat="47.90809" lon="-3.92329">
        <ele>71</ele>
        <time>2017-05-30T15:55:03Z</time>
      </trkpt>
      <trkpt lat="47.90817" lon="-3.92329">
        <ele>71</ele>
        <time>2017-05-30T15:55:08Z</time>
      </trkpt>
      <trkpt lat="47.90824" lon="-3.92331">
        <ele>71</ele>
        <time>2017-05-30T15:55:13Z</time>
      </trkpt>
      <trkpt lat="47.90827" lon="-3.92334">
        <ele>71</ele>
        <time>2017-05-30T15:55:18Z</time>
      </trkpt>
      <trkpt lat="47.90844" lon="-3.9234">
        <ele>70</ele>
        <time>2017-05-30T15:55:43Z</time>
      </trkpt>
      <trkpt lat="47.90847" lon="-3.92339">
        <ele>70</ele>
        <time>2017-05-30T15:55:48Z</time>
      </trkpt>
      <trkpt lat="47.90852" lon="-3.92338">
        <ele>70</ele>
        <time>2017-05-30T15:55:53Z</time>
      </trkpt>
      <trkpt lat="47.90863" lon="-3.9234">
        <ele>70</ele>
        <time>2017-05-30T15:56:08Z</time>
      </trkpt>
      <trkpt lat="47.90872" lon="-3.92337">
        <ele>70</ele>
        <time>2017-05-30T15:56:18Z</time>
      </trkpt>
      <trkpt lat="47.90878" lon="-3.92339">
        <ele>70</ele>
        <time>2017-05-30T15:56:23Z</time>
      </trkpt>
      <trkpt lat="47.90889" lon="-3.92343">
        <ele>70</ele>
        <time>2017-05-30T15:56:33Z</time>
      </trkpt>
      <trkpt lat="47.90896" lon="-3.92355">
        <ele>70</ele>
        <time>2017-05-30T15:56:43Z</time>
      </trkpt>
      <trkpt lat="47.90903" lon="-3.92359">
        <ele>70</ele>
        <time>2017-05-30T15:56:48Z</time>
      </trkpt>
      <trkpt lat="47.9091" lon="-3.92357">
        <ele>70</ele>
        <time>2017-05-30T15:56:53Z</time>
      </trkpt>
      <trkpt lat="47.90917" lon="-3.92354">
        <ele>70</ele>
        <time>2017-05-30T15:56:58Z</time>
      </trkpt>
      <trkpt lat="47.90922" lon="-3.92349">
        <ele>70</ele>
        <time>2017-05-30T15:57:03Z</time>
      </trkpt>
      <trkpt lat="47.9093" lon="-3.92346">
        <ele>70</ele>
        <time>2017-05-30T15:57:08Z</time>
      </trkpt>
      <trkpt lat="47.90946" lon="-3.92339">
        <ele>70</ele>
        <time>2017-05-30T15:57:18Z</time>
      </trkpt>
      <trkpt lat="47.90954" lon="-3.92342">
        <ele>70</ele>
        <time>2017-05-30T15:57:23Z</time>
      </trkpt>
      <trkpt lat="47.9096" lon="-3.92341">
        <ele>70</ele>
        <time>2017-05-30T15:57:28Z</time>
      </trkpt>
      <trkpt lat="47.90969" lon="-3.92335">
        <ele>71</ele>
        <time>2017-05-30T15:57:38Z</time>
      </trkpt>
      <trkpt lat="47.90986" lon="-3.92331">
        <ele>71</ele>
        <time>2017-05-30T15:57:53Z</time>
      </trkpt>
      <trkpt lat="47.90993" lon="-3.9233">
        <ele>71</ele>
        <time>2017-05-30T15:57:58Z</time>
      </trkpt>
      <trkpt lat="47.91012" lon="-3.92335">
        <ele>71</ele>
        <time>2017-05-30T15:58:08Z</time>
      </trkpt>
      <trkpt lat="47.9102" lon="-3.92337">
        <ele>71</ele>
        <time>2017-05-30T15:58:13Z</time>
      </trkpt>
      <trkpt lat="47.91025" lon="-3.92334">
        <ele>71</ele>
        <time>2017-05-30T15:58:18Z</time>
      </trkpt>
      <trkpt lat="47.91038" lon="-3.92337">
        <ele>72</ele>
        <time>2017-05-30T15:58:28Z</time>
      </trkpt>
      <trkpt lat="47.91043" lon="-3.92337">
        <ele>72</ele>
        <time>2017-05-30T15:58:33Z</time>
      </trkpt>
      <trkpt lat="47.9105" lon="-3.92333">
        <ele>72</ele>
        <time>2017-05-30T15:58:38Z</time>
      </trkpt>
      <trkpt lat="47.9107" lon="-3.92328">
        <ele>73</ele>
        <time>2017-05-30T15:58:53Z</time>
      </trkpt>
      <trkpt lat="47.91089" lon="-3.92323">
        <ele>73</ele>
        <time>2017-05-30T15:59:08Z</time>
      </trkpt>
      <trkpt lat="47.91106" lon="-3.92314">
        <ele>73</ele>
        <time>2017-05-30T15:59:23Z</time>
      </trkpt>
      <trkpt lat="47.91126" lon="-3.92309">
        <ele>73</ele>
        <time>2017-05-30T15:59:38Z</time>
      </trkpt>
      <trkpt lat="47.91132" lon="-3.9231">
        <ele>73</ele>
        <time>2017-05-30T15:59:43Z</time>
      </trkpt>
      <trkpt lat="47.91139" lon="-3.92317">
        <ele>73</ele>
        <time>2017-05-30T15:59:48Z</time>
      </trkpt>
      <trkpt lat="47.91139" lon="-3.9233">
        <ele>73</ele>
        <time>2017-05-30T15:59:53Z</time>
      </trkpt>
      <trkpt lat="47.91139" lon="-3.9234">
        <ele>74</ele>
        <time>2017-05-30T15:59:58Z</time>
      </trkpt>
      <trkpt lat="47.91139" lon="-3.92349">
        <ele>74</ele>
        <time>2017-05-30T16:00:03Z</time>
      </trkpt>
      <trkpt lat="47.91139" lon="-3.92359">
        <ele>74</ele>
        <time>2017-05-30T16:00:08Z</time>
      </trkpt>
      <trkpt lat="47.91138" lon="-3.92369">
        <ele>75</ele>
        <time>2017-05-30T16:00:13Z</time>
      </trkpt>
      <trkpt lat="47.91139" lon="-3.92378">
        <ele>75</ele>
        <time>2017-05-30T16:00:18Z</time>
      </trkpt>
      <trkpt lat="47.9114" lon="-3.92386">
        <ele>75</ele>
        <time>2017-05-30T16:00:23Z</time>
      </trkpt>
      <trkpt lat="47.91141" lon="-3.92402">
        <ele>76</ele>
        <time>2017-05-30T16:00:33Z</time>
      </trkpt>
      <trkpt lat="47.91144" lon="-3.92423">
        <ele>76</ele>
        <time>2017-05-30T16:00:43Z</time>
      </trkpt>
      <trkpt lat="47.91144" lon="-3.92434">
        <ele>77</ele>
        <time>2017-05-30T16:00:48Z</time>
      </trkpt>
      <trkpt lat="47.91144" lon="-3.92442">
        <ele>77</ele>
        <time>2017-05-30T16:00:53Z</time>
      </trkpt>
      <trkpt lat="47.91143" lon="-3.9246">
        <ele>77</ele>
        <time>2017-05-30T16:01:03Z</time>
      </trkpt>
      <trkpt lat="47.91142" lon="-3.92471">
        <ele>78</ele>
        <time>2017-05-30T16:01:08Z</time>
      </trkpt>
      <trkpt lat="47.91143" lon="-3.92492">
        <ele>78</ele>
        <time>2017-05-30T16:01:18Z</time>
      </trkpt>
      <trkpt lat="47.91144" lon="-3.92501">
        <ele>78</ele>
        <time>2017-05-30T16:01:23Z</time>
      </trkpt>
      <trkpt lat="47.91146" lon="-3.9251">
        <ele>78</ele>
        <time>2017-05-30T16:01:28Z</time>
      </trkpt>
      <trkpt lat="47.91147" lon="-3.9252">
        <ele>79</ele>
        <time>2017-05-30T16:01:33Z</time>
      </trkpt>
      <trkpt lat="47.91149" lon="-3.92529">
        <ele>79</ele>
        <time>2017-05-30T16:01:38Z</time>
      </trkpt>
      <trkpt lat="47.91151" lon="-3.9254">
        <ele>79</ele>
        <time>2017-05-30T16:01:43Z</time>
      </trkpt>
      <trkpt lat="47.9115" lon="-3.92549">
        <ele>79</ele>
        <time>2017-05-30T16:01:48Z</time>
      </trkpt>
      <trkpt lat="47.91152" lon="-3.9256">
        <ele>79</ele>
        <time>2017-05-30T16:01:53Z</time>
      </trkpt>
      <trkpt lat="47.91153" lon="-3.92596">
        <ele>79</ele>
        <time>2017-05-30T16:02:13Z</time>
      </trkpt>
      <trkpt lat="47.91158" lon="-3.92618">
        <ele>79</ele>
        <time>2017-05-30T16:02:23Z</time>
      </trkpt>
      <trkpt lat="47.91157" lon="-3.92626">
        <ele>79</ele>
        <time>2017-05-30T16:02:28Z</time>
      </trkpt>
      <trkpt lat="47.91158" lon="-3.92643">
        <ele>79</ele>
        <time>2017-05-30T16:02:38Z</time>
      </trkpt>
      <trkpt lat="47.91162" lon="-3.92657">
        <ele>79</ele>
        <time>2017-05-30T16:02:43Z</time>
      </trkpt>
      <trkpt lat="47.91161" lon="-3.9267">
        <ele>79</ele>
        <time>2017-05-30T16:02:48Z</time>
      </trkpt>
      <trkpt lat="47.9116" lon="-3.92674">
        <ele>79</ele>
        <time>2017-05-30T16:02:53Z</time>
      </trkpt>
      <trkpt lat="47.91159" lon="-3.9268">
        <ele>78</ele>
        <time>2017-05-30T16:02:58Z</time>
      </trkpt>
      <trkpt lat="47.91162" lon="-3.92696">
        <ele>78</ele>
        <time>2017-05-30T16:03:08Z</time>
      </trkpt>
      <trkpt lat="47.91163" lon="-3.92702">
        <ele>78</ele>
        <time>2017-05-30T16:03:13Z</time>
      </trkpt>
      <trkpt lat="47.91164" lon="-3.92733">
        <ele>77</ele>
        <time>2017-05-30T16:03:38Z</time>
      </trkpt>
      <trkpt lat="47.91167" lon="-3.92738">
        <ele>77</ele>
        <time>2017-05-30T16:03:43Z</time>
      </trkpt>
      <trkpt lat="47.91166" lon="-3.92758">
        <ele>76</ele>
        <time>2017-05-30T16:03:58Z</time>
      </trkpt>
      <trkpt lat="47.91165" lon="-3.92762">
        <ele>76</ele>
        <time>2017-05-30T16:04:03Z</time>
      </trkpt>
      <trkpt lat="47.91166" lon="-3.92764">
        <ele>76</ele>
        <time>2017-05-30T16:04:08Z</time>
      </trkpt>
      <trkpt lat="47.91166" lon="-3.92767">
        <ele>76</ele>
        <time>2017-05-30T16:04:13Z</time>
      </trkpt>
      <trkpt lat="47.91168" lon="-3.92774">
        <ele>76</ele>
        <time>2017-05-30T16:04:23Z</time>
      </trkpt>
      <trkpt lat="47.91169" lon="-3.92779">
        <ele>76</ele>
        <time>2017-05-30T16:04:28Z</time>
      </trkpt>
      <trkpt lat="47.91168" lon="-3.92786">
        <ele>76</ele>
        <time>2017-05-30T16:04:33Z</time>
      </trkpt>
      <trkpt lat="47.91168" lon="-3.92786">
        <ele>76</ele>
        <time>2017-05-30T16:04:43Z</time>
      </trkpt>
      <trkpt lat="47.91169" lon="-3.92791">
        <ele>76</ele>
        <time>2017-05-30T16:04:48Z</time>
      </trkpt>
      <trkpt lat="47.91171" lon="-3.92794">
        <ele>76</ele>
        <time>2017-05-30T16:04:58Z</time>
      </trkpt>
      <trkpt lat="47.91172" lon="-3.92798">
        <ele>75</ele>
        <time>2017-05-30T16:05:08Z</time>
      </trkpt>
      <trkpt lat="47.91174" lon="-3.92803">
        <ele>75</ele>
        <time>2017-05-30T16:05:13Z</time>
      </trkpt>
      <trkpt lat="47.91179" lon="-3.92816">
        <ele>75</ele>
        <time>2017-05-30T16:05:23Z</time>
      </trkpt>
      <trkpt lat="47.91182" lon="-3.92821">
        <ele>75</ele>
        <time>2017-05-30T16:05:28Z</time>
      </trkpt>
      <trkpt lat="47.91183" lon="-3.92827">
        <ele>75</ele>
        <time>2017-05-30T16:05:33Z</time>
      </trkpt>
      <trkpt lat="47.91186" lon="-3.92833">
        <ele>75</ele>
        <time>2017-05-30T16:05:38Z</time>
      </trkpt>
      <trkpt lat="47.9119" lon="-3.92848">
        <ele>74</ele>
        <time>2017-05-30T16:05:48Z</time>
      </trkpt>
      <trkpt lat="47.91201" lon="-3.92874">
        <ele>74</ele>
        <time>2017-05-30T16:06:03Z</time>
      </trkpt>
      <trkpt lat="47.91204" lon="-3.92883">
        <ele>73</ele>
        <time>2017-05-30T16:06:08Z</time>
      </trkpt>
      <trkpt lat="47.91206" lon="-3.92892">
        <ele>73</ele>
        <time>2017-05-30T16:06:13Z</time>
      </trkpt>
      <trkpt lat="47.9121" lon="-3.92908">
        <ele>73</ele>
        <time>2017-05-30T16:06:23Z</time>
      </trkpt>
      <trkpt lat="47.91212" lon="-3.92919">
        <ele>72</ele>
        <time>2017-05-30T16:06:28Z</time>
      </trkpt>
      <trkpt lat="47.91212" lon="-3.92931">
        <ele>72</ele>
        <time>2017-05-30T16:06:33Z</time>
      </trkpt>
      <trkpt lat="47.91211" lon="-3.92942">
        <ele>72</ele>
        <time>2017-05-30T16:06:38Z</time>
      </trkpt>
      <trkpt lat="47.91213" lon="-3.92974">
        <ele>71</ele>
        <time>2017-05-30T16:06:53Z</time>
      </trkpt>
      <trkpt lat="47.91216" lon="-3.92985">
        <ele>71</ele>
        <time>2017-05-30T16:06:58Z</time>
      </trkpt>
      <trkpt lat="47.91219" lon="-3.93011">
        <ele>70</ele>
        <time>2017-05-30T16:07:08Z</time>
      </trkpt>
      <trkpt lat="47.91221" lon="-3.93022">
        <ele>70</ele>
        <time>2017-05-30T16:07:13Z</time>
      </trkpt>
      <trkpt lat="47.91227" lon="-3.93033">
        <ele>70</ele>
        <time>2017-05-30T16:07:23Z</time>
      </trkpt>
      <trkpt lat="47.91228" lon="-3.93041">
        <ele>70</ele>
        <time>2017-05-30T16:07:28Z</time>
      </trkpt>
      <trkpt lat="47.91227" lon="-3.93051">
        <ele>70</ele>
        <time>2017-05-30T16:07:33Z</time>
      </trkpt>
      <trkpt lat="47.91226" lon="-3.93063">
        <ele>69</ele>
        <time>2017-05-30T16:07:38Z</time>
      </trkpt>
      <trkpt lat="47.91228" lon="-3.93073">
        <ele>69</ele>
        <time>2017-05-30T16:07:43Z</time>
      </trkpt>
      <trkpt lat="47.91227" lon="-3.93103">
        <ele>68</ele>
        <time>2017-05-30T16:07:58Z</time>
      </trkpt>
      <trkpt lat="47.91232" lon="-3.93121">
        <ele>68</ele>
        <time>2017-05-30T16:08:08Z</time>
      </trkpt>
      <trkpt lat="47.91234" lon="-3.9313">
        <ele>67</ele>
        <time>2017-05-30T16:08:13Z</time>
      </trkpt>
      <trkpt lat="47.91237" lon="-3.9315">
        <ele>67</ele>
        <time>2017-05-30T16:08:23Z</time>
      </trkpt>
      <trkpt lat="47.91237" lon="-3.9316">
        <ele>67</ele>
        <time>2017-05-30T16:08:28Z</time>
      </trkpt>
      <trkpt lat="47.91238" lon="-3.93168">
        <ele>67</ele>
        <time>2017-05-30T16:08:33Z</time>
      </trkpt>
      <trkpt lat="47.91237" lon="-3.93177">
        <ele>66</ele>
        <time>2017-05-30T16:08:38Z</time>
      </trkpt>
      <trkpt lat="47.91237" lon="-3.93189">
        <ele>66</ele>
        <time>2017-05-30T16:08:43Z</time>
      </trkpt>
      <trkpt lat="47.91236" lon="-3.93199">
        <ele>66</ele>
        <time>2017-05-30T16:08:48Z</time>
      </trkpt>
      <trkpt lat="47.91235" lon="-3.93233">
        <ele>66</ele>
        <time>2017-05-30T16:09:03Z</time>
      </trkpt>
      <trkpt lat="47.91235" lon="-3.93243">
        <ele>66</ele>
        <time>2017-05-30T16:09:08Z</time>
      </trkpt>
      <trkpt lat="47.91233" lon="-3.93254">
        <ele>67</ele>
        <time>2017-05-30T16:09:13Z</time>
      </trkpt>
      <trkpt lat="47.91231" lon="-3.93267">
        <ele>67</ele>
        <time>2017-05-30T16:09:18Z</time>
      </trkpt>
      <trkpt lat="47.91229" lon="-3.93289">
        <ele>67</ele>
        <time>2017-05-30T16:09:28Z</time>
      </trkpt>
      <trkpt lat="47.91227" lon="-3.93298">
        <ele>67</ele>
        <time>2017-05-30T16:09:33Z</time>
      </trkpt>
      <trkpt lat="47.91224" lon="-3.93316">
        <ele>68</ele>
        <time>2017-05-30T16:09:43Z</time>
      </trkpt>
      <trkpt lat="47.91225" lon="-3.93324">
        <ele>68</ele>
        <time>2017-05-30T16:09:48Z</time>
      </trkpt>
      <trkpt lat="47.91225" lon="-3.93334">
        <ele>68</ele>
        <time>2017-05-30T16:09:53Z</time>
      </trkpt>
      <trkpt lat="47.91224" lon="-3.93341">
        <ele>68</ele>
        <time>2017-05-30T16:09:58Z</time>
      </trkpt>
      <trkpt lat="47.91224" lon="-3.93341">
        <ele>68</ele>
        <time>2017-05-30T16:10:08Z</time>
      </trkpt>
      <trkpt lat="47.91225" lon="-3.93344">
        <ele>68</ele>
        <time>2017-05-30T16:10:13Z</time>
      </trkpt>
      <trkpt lat="47.91225" lon="-3.93344">
        <ele>68</ele>
        <time>2017-05-30T16:10:23Z</time>
      </trkpt>
      <trkpt lat="47.91225" lon="-3.93344">
        <ele>68</ele>
        <time>2017-05-30T16:10:28Z</time>
      </trkpt>
      <trkpt lat="47.91225" lon="-3.93345">
        <ele>68</ele>
        <time>2017-05-30T16:10:33Z</time>
      </trkpt>
      <trkpt lat="47.91225" lon="-3.93345">
        <ele>68</ele>
        <time>2017-05-30T16:10:58Z</time>
      </trkpt>
      <trkpt lat="47.91225" lon="-3.93345">
        <ele>68</ele>
        <time>2017-05-30T16:11:03Z</time>
      </trkpt>
      <trkpt lat="47.91225" lon="-3.93345">
        <ele>68</ele>
        <time>2017-05-30T16:11:08Z</time>
      </trkpt>
      <trkpt lat="47.91225" lon="-3.93345">
        <ele>68</ele>
        <time>2017-05-30T16:11:13Z</time>
      </trkpt>
      <trkpt lat="47.91225" lon="-3.93345">
        <ele>68</ele>
        <time>2017-05-30T16:11:38Z</time>
      </trkpt>
      <trkpt lat="47.91225" lon="-3.93345">
        <ele>68</ele>
        <time>2017-05-30T16:11:43Z</time>
      </trkpt>
      <trkpt lat="47.91225" lon="-3.93345">
        <ele>68</ele>
        <time>2017-05-30T16:11:58Z</time>
      </trkpt>
      <trkpt lat="47.91225" lon="-3.93345">
        <ele>68</ele>
        <time>2017-05-30T16:12:03Z</time>
      </trkpt>
      <trkpt lat="47.91225" lon="-3.93345">
        <ele>68</ele>
        <time>2017-05-30T16:12:08Z</time>
      </trkpt>
      <trkpt lat="47.91225" lon="-3.93345">
        <ele>68</ele>
        <time>2017-05-30T16:12:13Z</time>
      </trkpt>
      <trkpt lat="47.91225" lon="-3.93346">
        <ele>68</ele>
        <time>2017-05-30T16:12:48Z</time>
      </trkpt>
      <trkpt lat="47.91224" lon="-3.93353">
        <ele>68</ele>
        <time>2017-05-30T16:12:53Z</time>
      </trkpt>
      <trkpt lat="47.91222" lon="-3.93362">
        <ele>68</ele>
        <time>2017-05-30T16:12:58Z</time>
      </trkpt>
      <trkpt lat="47.91221" lon="-3.93371">
        <ele>68</ele>
        <time>2017-05-30T16:13:03Z</time>
      </trkpt>
      <trkpt lat="47.9122" lon="-3.93392">
        <ele>68</ele>
        <time>2017-05-30T16:13:13Z</time>
      </trkpt>
      <trkpt lat="47.91218" lon="-3.93411">
        <ele>69</ele>
        <time>2017-05-30T16:13:23Z</time>
      </trkpt>
      <trkpt lat="47.91218" lon="-3.9342">
        <ele>69</ele>
        <time>2017-05-30T16:13:28Z</time>
      </trkpt>
      <trkpt lat="47.91219" lon="-3.93429">
        <ele>69</ele>
        <time>2017-05-30T16:13:33Z</time>
      </trkpt>
      <trkpt lat="47.91221" lon="-3.93438">
        <ele>69</ele>
        <time>2017-05-30T16:13:38Z</time>
      </trkpt>
      <trkpt lat="47.91223" lon="-3.93447">
        <ele>69</ele>
        <time>2017-05-30T16:13:43Z</time>
      </trkpt>
      <trkpt lat="47.91225" lon="-3.93455">
        <ele>70</ele>
        <time>2017-05-30T16:13:48Z</time>
      </trkpt>
      <trkpt lat="47.91231" lon="-3.93469">
        <ele>70</ele>
        <time>2017-05-30T16:13:58Z</time>
      </trkpt>
      <trkpt lat="47.91234" lon="-3.93479">
        <ele>70</ele>
        <time>2017-05-30T16:14:03Z</time>
      </trkpt>
      <trkpt lat="47.91237" lon="-3.93489">
        <ele>70</ele>
        <time>2017-05-30T16:14:08Z</time>
      </trkpt>
      <trkpt lat="47.91243" lon="-3.93503">
        <ele>71</ele>
        <time>2017-05-30T16:14:13Z</time>
      </trkpt>
      <trkpt lat="47.91245" lon="-3.93513">
        <ele>71</ele>
        <time>2017-05-30T16:14:18Z</time>
      </trkpt>
      <trkpt lat="47.91247" lon="-3.9352">
        <ele>71</ele>
        <time>2017-05-30T16:14:23Z</time>
      </trkpt>
      <trkpt lat="47.91248" lon="-3.93521">
        <ele>71</ele>
        <time>2017-05-30T16:14:48Z</time>
      </trkpt>
      <trkpt lat="47.91247" lon="-3.93522">
        <ele>71</ele>
        <time>2017-05-30T16:14:58Z</time>
      </trkpt>
      <trkpt lat="47.91248" lon="-3.93522">
        <ele>71</ele>
        <time>2017-05-30T16:15:03Z</time>
      </trkpt>
      <trkpt lat="47.91248" lon="-3.93522">
        <ele>71</ele>
        <time>2017-05-30T16:15:13Z</time>
      </trkpt>
      <trkpt lat="47.91248" lon="-3.93522">
        <ele>71</ele>
        <time>2017-05-30T16:15:18Z</time>
      </trkpt>
      <trkpt lat="47.91251" lon="-3.9352">
        <ele>71</ele>
        <time>2017-05-30T16:15:33Z</time>
      </trkpt>
      <trkpt lat="47.91254" lon="-3.93519">
        <ele>71</ele>
        <time>2017-05-30T16:15:38Z</time>
      </trkpt>
      <trkpt lat="47.91261" lon="-3.93518">
        <ele>72</ele>
        <time>2017-05-30T16:15:43Z</time>
      </trkpt>
      <trkpt lat="47.91267" lon="-3.93516">
        <ele>72</ele>
        <time>2017-05-30T16:15:48Z</time>
      </trkpt>
      <trkpt lat="47.91272" lon="-3.93514">
        <ele>72</ele>
        <time>2017-05-30T16:15:53Z</time>
      </trkpt>
      <trkpt lat="47.91277" lon="-3.93512">
        <ele>72</ele>
        <time>2017-05-30T16:15:58Z</time>
      </trkpt>
      <trkpt lat="47.91287" lon="-3.93506">
        <ele>72</ele>
        <time>2017-05-30T16:16:08Z</time>
      </trkpt>
      <trkpt lat="47.91294" lon="-3.93504">
        <ele>72</ele>
        <time>2017-05-30T16:16:13Z</time>
      </trkpt>
      <trkpt lat="47.91305" lon="-3.93499">
        <ele>73</ele>
        <time>2017-05-30T16:16:23Z</time>
      </trkpt>
      <trkpt lat="47.91311" lon="-3.93498">
        <ele>73</ele>
        <time>2017-05-30T16:16:28Z</time>
      </trkpt>
      <trkpt lat="47.91317" lon="-3.93496">
        <ele>73</ele>
        <time>2017-05-30T16:16:33Z</time>
      </trkpt>
      <trkpt lat="47.91323" lon="-3.93492">
        <ele>73</ele>
        <time>2017-05-30T16:16:38Z</time>
      </trkpt>
      <trkpt lat="47.91331" lon="-3.93487">
        <ele>73</ele>
        <time>2017-05-30T16:16:43Z</time>
      </trkpt>
      <trkpt lat="47.91339" lon="-3.93479">
        <ele>73</ele>
        <time>2017-05-30T16:16:48Z</time>
      </trkpt>
      <trkpt lat="47.91348" lon="-3.93474">
        <ele>73</ele>
        <time>2017-05-30T16:16:53Z</time>
      </trkpt>
      <trkpt lat="47.91356" lon="-3.93469">
        <ele>73</ele>
        <time>2017-05-30T16:16:58Z</time>
      </trkpt>
      <trkpt lat="47.91364" lon="-3.93467">
        <ele>73</ele>
        <time>2017-05-30T16:17:03Z</time>
      </trkpt>
      <trkpt lat="47.91379" lon="-3.9346">
        <ele>74</ele>
        <time>2017-05-30T16:17:13Z</time>
      </trkpt>
      <trkpt lat="47.91387" lon="-3.93459">
        <ele>74</ele>
        <time>2017-05-30T16:17:18Z</time>
      </trkpt>
      <trkpt lat="47.91409" lon="-3.93463">
        <ele>74</ele>
        <time>2017-05-30T16:17:33Z</time>
      </trkpt>
      <trkpt lat="47.91415" lon="-3.93462">
        <ele>74</ele>
        <time>2017-05-30T16:17:38Z</time>
      </trkpt>
      <trkpt lat="47.91425" lon="-3.93469">
        <ele>74</ele>
        <time>2017-05-30T16:17:48Z</time>
      </trkpt>
      <trkpt lat="47.91438" lon="-3.93475">
        <ele>73</ele>
        <time>2017-05-30T16:17:58Z</time>
      </trkpt>
      <trkpt lat="47.9144" lon="-3.93485">
        <ele>73</ele>
        <time>2017-05-30T16:18:03Z</time>
      </trkpt>
      <trkpt lat="47.91438" lon="-3.93505">
        <ele>73</ele>
        <time>2017-05-30T16:18:13Z</time>
      </trkpt>
      <trkpt lat="47.91439" lon="-3.93514">
        <ele>73</ele>
        <time>2017-05-30T16:18:18Z</time>
      </trkpt>
      <trkpt lat="47.91438" lon="-3.93526">
        <ele>73</ele>
        <time>2017-05-30T16:18:23Z</time>
      </trkpt>
      <trkpt lat="47.91438" lon="-3.93535">
        <ele>73</ele>
        <time>2017-05-30T16:18:28Z</time>
      </trkpt>
      <trkpt lat="47.91437" lon="-3.93552">
        <ele>72</ele>
        <time>2017-05-30T16:18:38Z</time>
      </trkpt>
      <trkpt lat="47.91437" lon="-3.93586">
        <ele>72</ele>
        <time>2017-05-30T16:18:53Z</time>
      </trkpt>
      <trkpt lat="47.91436" lon="-3.93606">
        <ele>72</ele>
        <time>2017-05-30T16:19:03Z</time>
      </trkpt>
      <trkpt lat="47.91433" lon="-3.93625">
        <ele>72</ele>
        <time>2017-05-30T16:19:13Z</time>
      </trkpt>
      <trkpt lat="47.91435" lon="-3.93632">
        <ele>72</ele>
        <time>2017-05-30T16:19:18Z</time>
      </trkpt>
      <trkpt lat="47.91435" lon="-3.93635">
        <ele>72</ele>
        <time>2017-05-30T16:19:23Z</time>
      </trkpt>
      <trkpt lat="47.91433" lon="-3.93643">
        <ele>72</ele>
        <time>2017-05-30T16:19:28Z</time>
      </trkpt>
      <trkpt lat="47.91432" lon="-3.93671">
        <ele>72</ele>
        <time>2017-05-30T16:19:38Z</time>
      </trkpt>
      <trkpt lat="47.91428" lon="-3.93681">
        <ele>72</ele>
        <time>2017-05-30T16:19:43Z</time>
      </trkpt>
      <trkpt lat="47.91429" lon="-3.93687">
        <ele>72</ele>
        <time>2017-05-30T16:19:48Z</time>
      </trkpt>
      <trkpt lat="47.91429" lon="-3.93696">
        <ele>72</ele>
        <time>2017-05-30T16:19:53Z</time>
      </trkpt>
      <trkpt lat="47.9143" lon="-3.93708">
        <ele>71</ele>
        <time>2017-05-30T16:19:58Z</time>
      </trkpt>
      <trkpt lat="47.91434" lon="-3.93726">
        <ele>71</ele>
        <time>2017-05-30T16:20:08Z</time>
      </trkpt>
      <trkpt lat="47.91438" lon="-3.93735">
        <ele>71</ele>
        <time>2017-05-30T16:20:13Z</time>
      </trkpt>
      <trkpt lat="47.9144" lon="-3.93753">
        <ele>71</ele>
        <time>2017-05-30T16:20:23Z</time>
      </trkpt>
      <trkpt lat="47.91441" lon="-3.93763">
        <ele>71</ele>
        <time>2017-05-30T16:20:28Z</time>
      </trkpt>
      <trkpt lat="47.91442" lon="-3.93774">
        <ele>71</ele>
        <time>2017-05-30T16:20:33Z</time>
      </trkpt>
      <trkpt lat="47.91442" lon="-3.93784">
        <ele>71</ele>
        <time>2017-05-30T16:20:38Z</time>
      </trkpt>
      <trkpt lat="47.9144" lon="-3.93795">
        <ele>70</ele>
        <time>2017-05-30T16:20:43Z</time>
      </trkpt>
      <trkpt lat="47.91439" lon="-3.93804">
        <ele>70</ele>
        <time>2017-05-30T16:20:48Z</time>
      </trkpt>
      <trkpt lat="47.91439" lon="-3.9382">
        <ele>70</ele>
        <time>2017-05-30T16:20:58Z</time>
      </trkpt>
      <trkpt lat="47.91439" lon="-3.93847">
        <ele>69</ele>
        <time>2017-05-30T16:21:13Z</time>
      </trkpt>
      <trkpt lat="47.9144" lon="-3.93857">
        <ele>68</ele>
        <time>2017-05-30T16:21:18Z</time>
      </trkpt>
      <trkpt lat="47.91444" lon="-3.93872">
        <ele>68</ele>
        <time>2017-05-30T16:21:28Z</time>
      </trkpt>
      <trkpt lat="47.91443" lon="-3.93882">
        <ele>68</ele>
        <time>2017-05-30T16:21:33Z</time>
      </trkpt>
      <trkpt lat="47.91445" lon="-3.93892">
        <ele>67</ele>
        <time>2017-05-30T16:21:38Z</time>
      </trkpt>
      <trkpt lat="47.91446" lon="-3.93902">
        <ele>67</ele>
        <time>2017-05-30T16:21:43Z</time>
      </trkpt>
      <trkpt lat="47.91452" lon="-3.93931">
        <ele>66</ele>
        <time>2017-05-30T16:21:58Z</time>
      </trkpt>
      <trkpt lat="47.91451" lon="-3.93958">
        <ele>65</ele>
        <time>2017-05-30T16:22:08Z</time>
      </trkpt>
      <trkpt lat="47.91454" lon="-3.93966">
        <ele>65</ele>
        <time>2017-05-30T16:22:13Z</time>
      </trkpt>
      <trkpt lat="47.91452" lon="-3.93975">
        <ele>65</ele>
        <time>2017-05-30T16:22:18Z</time>
      </trkpt>
      <trkpt lat="47.91452" lon="-3.93984">
        <ele>65</ele>
        <time>2017-05-30T16:22:23Z</time>
      </trkpt>
      <trkpt lat="47.91452" lon="-3.93992">
        <ele>65</ele>
        <time>2017-05-30T16:22:28Z</time>
      </trkpt>
      <trkpt lat="47.91452" lon="-3.94">
        <ele>64</ele>
        <time>2017-05-30T16:22:33Z</time>
      </trkpt>
      <trkpt lat="47.9145" lon="-3.94028">
        <ele>63</ele>
        <time>2017-05-30T16:22:48Z</time>
      </trkpt>
      <trkpt lat="47.91448" lon="-3.94039">
        <ele>63</ele>
        <time>2017-05-30T16:22:53Z</time>
      </trkpt>
      <trkpt lat="47.91444" lon="-3.94059">
        <ele>62</ele>
        <time>2017-05-30T16:23:03Z</time>
      </trkpt>
      <trkpt lat="47.91445" lon="-3.9407">
        <ele>61</ele>
        <time>2017-05-30T16:23:08Z</time>
      </trkpt>
      <trkpt lat="47.91444" lon="-3.94083">
        <ele>60</ele>
        <time>2017-05-30T16:23:13Z</time>
      </trkpt>
      <trkpt lat="47.91442" lon="-3.94094">
        <ele>60</ele>
        <time>2017-05-30T16:23:18Z</time>
      </trkpt>
      <trkpt lat="47.91443" lon="-3.94122">
        <ele>58</ele>
        <time>2017-05-30T16:23:33Z</time>
      </trkpt>
      <trkpt lat="47.91441" lon="-3.9413">
        <ele>57</ele>
        <time>2017-05-30T16:23:38Z</time>
      </trkpt>
      <trkpt lat="47.91438" lon="-3.94138">
        <ele>57</ele>
        <time>2017-05-30T16:23:43Z</time>
      </trkpt>
      <trkpt lat="47.91436" lon="-3.94147">
        <ele>56</ele>
        <time>2017-05-30T16:23:48Z</time>
      </trkpt>
      <trkpt lat="47.91435" lon="-3.94148">
        <ele>56</ele>
        <time>2017-05-30T16:23:53Z</time>
      </trkpt>
      <trkpt lat="47.91435" lon="-3.94148">
        <ele>56</ele>
        <time>2017-05-30T16:23:58Z</time>
      </trkpt>
      <trkpt lat="47.91435" lon="-3.94148">
        <ele>56</ele>
        <time>2017-05-30T16:24:03Z</time>
      </trkpt>
      <trkpt lat="47.91435" lon="-3.94148">
        <ele>56</ele>
        <time>2017-05-30T16:24:08Z</time>
      </trkpt>
      <trkpt lat="47.91435" lon="-3.94148">
        <ele>56</ele>
        <time>2017-05-30T16:24:18Z</time>
      </trkpt>
      <trkpt lat="47.91435" lon="-3.94148">
        <ele>56</ele>
        <time>2017-05-30T16:24:23Z</time>
      </trkpt>
      <trkpt lat="47.91435" lon="-3.94148">
        <ele>56</ele>
        <time>2017-05-30T16:24:28Z</time>
      </trkpt>
      <trkpt lat="47.91435" lon="-3.94148">
        <ele>56</ele>
        <time>2017-05-30T16:24:33Z</time>
      </trkpt>
      <trkpt lat="47.91435" lon="-3.94148">
        <ele>56</ele>
        <time>2017-05-30T16:24:38Z</time>
      </trkpt>
      <trkpt lat="47.91435" lon="-3.94148">
        <ele>56</ele>
        <time>2017-05-30T16:24:43Z</time>
      </trkpt>
      <trkpt lat="47.91435" lon="-3.94148">
        <ele>56</ele>
        <time>2017-05-30T16:24:48Z</time>
      </trkpt>
      <trkpt lat="47.91435" lon="-3.94148">
        <ele>56</ele>
        <time>2017-05-30T16:24:53Z</time>
      </trkpt>
      <trkpt lat="47.91435" lon="-3.94148">
        <ele>56</ele>
        <time>2017-05-30T16:24:58Z</time>
      </trkpt>
      <trkpt lat="47.91435" lon="-3.94148">
        <ele>56</ele>
        <time>2017-05-30T16:25:03Z</time>
      </trkpt>
      <trkpt lat="47.91434" lon="-3.94151">
        <ele>56</ele>
        <time>2017-05-30T16:26:43Z</time>
      </trkpt>
      <trkpt lat="47.91428" lon="-3.94157">
        <ele>55</ele>
        <time>2017-05-30T16:26:53Z</time>
      </trkpt>
      <trkpt lat="47.91423" lon="-3.94164">
        <ele>55</ele>
        <time>2017-05-30T16:26:58Z</time>
      </trkpt>
      <trkpt lat="47.91409" lon="-3.94171">
        <ele>54</ele>
        <time>2017-05-30T16:27:08Z</time>
      </trkpt>
      <trkpt lat="47.91403" lon="-3.94174">
        <ele>54</ele>
        <time>2017-05-30T16:27:13Z</time>
      </trkpt>
      <trkpt lat="47.91397" lon="-3.94175">
        <ele>55</ele>
        <time>2017-05-30T16:27:18Z</time>
      </trkpt>
      <trkpt lat="47.91391" lon="-3.94174">
        <ele>55</ele>
        <time>2017-05-30T16:27:23Z</time>
      </trkpt>
      <trkpt lat="47.91386" lon="-3.94174">
        <ele>56</ele>
        <time>2017-05-30T16:27:28Z</time>
      </trkpt>
      <trkpt lat="47.91381" lon="-3.94175">
        <ele>56</ele>
        <time>2017-05-30T16:27:33Z</time>
      </trkpt>
      <trkpt lat="47.91375" lon="-3.94174">
        <ele>57</ele>
        <time>2017-05-30T16:27:38Z</time>
      </trkpt>
      <trkpt lat="47.91369" lon="-3.94172">
        <ele>57</ele>
        <time>2017-05-30T16:27:43Z</time>
      </trkpt>
      <trkpt lat="47.91362" lon="-3.94175">
        <ele>58</ele>
        <time>2017-05-30T16:27:48Z</time>
      </trkpt>
      <trkpt lat="47.9135" lon="-3.94174">
        <ele>59</ele>
        <time>2017-05-30T16:27:58Z</time>
      </trkpt>
      <trkpt lat="47.91344" lon="-3.94174">
        <ele>59</ele>
        <time>2017-05-30T16:28:03Z</time>
      </trkpt>
      <trkpt lat="47.91337" lon="-3.94174">
        <ele>60</ele>
        <time>2017-05-30T16:28:08Z</time>
      </trkpt>
      <trkpt lat="47.91326" lon="-3.94171">
        <ele>61</ele>
        <time>2017-05-30T16:28:18Z</time>
      </trkpt>
      <trkpt lat="47.91318" lon="-3.9417">
        <ele>61</ele>
        <time>2017-05-30T16:28:23Z</time>
      </trkpt>
      <trkpt lat="47.91308" lon="-3.94176">
        <ele>62</ele>
        <time>2017-05-30T16:28:28Z</time>
      </trkpt>
      <trkpt lat="47.91301" lon="-3.94181">
        <ele>62</ele>
        <time>2017-05-30T16:28:33Z</time>
      </trkpt>
      <trkpt lat="47.91295" lon="-3.9419">
        <ele>62</ele>
        <time>2017-05-30T16:28:43Z</time>
      </trkpt>
      <trkpt lat="47.91289" lon="-3.94191">
        <ele>63</ele>
        <time>2017-05-30T16:28:48Z</time>
      </trkpt>
      <trkpt lat="47.9128" lon="-3.94189">
        <ele>63</ele>
        <time>2017-05-30T16:28:53Z</time>
      </trkpt>
      <trkpt lat="47.91278" lon="-3.94187">
        <ele>64</ele>
        <time>2017-05-30T16:28:58Z</time>
      </trkpt>
      <trkpt lat="47.91257" lon="-3.94188">
        <ele>64</ele>
        <time>2017-05-30T16:29:13Z</time>
      </trkpt>
      <trkpt lat="47.91254" lon="-3.94191">
        <ele>64</ele>
        <time>2017-05-30T16:29:18Z</time>
      </trkpt>
      <trkpt lat="47.9125" lon="-3.94188">
        <ele>65</ele>
        <time>2017-05-30T16:29:23Z</time>
      </trkpt>
      <trkpt lat="47.91241" lon="-3.94184">
        <ele>65</ele>
        <time>2017-05-30T16:29:28Z</time>
      </trkpt>
      <trkpt lat="47.91224" lon="-3.94178">
        <ele>65</ele>
        <time>2017-05-30T16:29:38Z</time>
      </trkpt>
      <trkpt lat="47.91219" lon="-3.94175">
        <ele>66</ele>
        <time>2017-05-30T16:29:43Z</time>
      </trkpt>
      <trkpt lat="47.91212" lon="-3.94174">
        <ele>66</ele>
        <time>2017-05-30T16:29:48Z</time>
      </trkpt>
      <trkpt lat="47.91207" lon="-3.94175">
        <ele>66</ele>
        <time>2017-05-30T16:29:53Z</time>
      </trkpt>
      <trkpt lat="47.91194" lon="-3.94168">
        <ele>66</ele>
        <time>2017-05-30T16:30:03Z</time>
      </trkpt>
      <trkpt lat="47.91186" lon="-3.94155">
        <ele>66</ele>
        <time>2017-05-30T16:30:13Z</time>
      </trkpt>
      <trkpt lat="47.91181" lon="-3.94135">
        <ele>66</ele>
        <time>2017-05-30T16:30:23Z</time>
      </trkpt>
      <trkpt lat="47.91176" lon="-3.9413">
        <ele>66</ele>
        <time>2017-05-30T16:30:28Z</time>
      </trkpt>
      <trkpt lat="47.91176" lon="-3.9413">
        <ele>66</ele>
        <time>2017-05-30T16:30:33Z</time>
      </trkpt>
      <trkpt lat="47.91175" lon="-3.94132">
        <ele>66</ele>
        <time>2017-05-30T16:30:38Z</time>
      </trkpt>
      <trkpt lat="47.91175" lon="-3.94132">
        <ele>66</ele>
        <time>2017-05-30T16:30:48Z</time>
      </trkpt>
      <trkpt lat="47.91173" lon="-3.94132">
        <ele>66</ele>
        <time>2017-05-30T16:30:58Z</time>
      </trkpt>
      <trkpt lat="47.91168" lon="-3.9413">
        <ele>66</ele>
        <time>2017-05-30T16:31:03Z</time>
      </trkpt>
      <trkpt lat="47.91159" lon="-3.94123">
        <ele>66</ele>
        <time>2017-05-30T16:31:13Z</time>
      </trkpt>
      <trkpt lat="47.91146" lon="-3.94121">
        <ele>66</ele>
        <time>2017-05-30T16:31:23Z</time>
      </trkpt>
      <trkpt lat="47.91136" lon="-3.94115">
        <ele>66</ele>
        <time>2017-05-30T16:31:33Z</time>
      </trkpt>
      <trkpt lat="47.91129" lon="-3.94112">
        <ele>66</ele>
        <time>2017-05-30T16:31:38Z</time>
      </trkpt>
      <trkpt lat="47.91124" lon="-3.94109">
        <ele>65</ele>
        <time>2017-05-30T16:31:43Z</time>
      </trkpt>
      <trkpt lat="47.91115" lon="-3.94103">
        <ele>65</ele>
        <time>2017-05-30T16:31:53Z</time>
      </trkpt>
      <trkpt lat="47.91093" lon="-3.94096">
        <ele>64</ele>
        <time>2017-05-30T16:32:08Z</time>
      </trkpt>
      <trkpt lat="47.9108" lon="-3.94089">
        <ele>63</ele>
        <time>2017-05-30T16:32:18Z</time>
      </trkpt>
      <trkpt lat="47.91063" lon="-3.94088">
        <ele>63</ele>
        <time>2017-05-30T16:32:28Z</time>
      </trkpt>
      <trkpt lat="47.91056" lon="-3.94085">
        <ele>63</ele>
        <time>2017-05-30T16:32:33Z</time>
      </trkpt>
      <trkpt lat="47.9105" lon="-3.94081">
        <ele>63</ele>
        <time>2017-05-30T16:32:38Z</time>
      </trkpt>
      <trkpt lat="47.91042" lon="-3.94079">
        <ele>63</ele>
        <time>2017-05-30T16:32:43Z</time>
      </trkpt>
      <trkpt lat="47.91039" lon="-3.94077">
        <ele>63</ele>
        <time>2017-05-30T16:32:48Z</time>
      </trkpt>
      <trkpt lat="47.91035" lon="-3.94074">
        <ele>63</ele>
        <time>2017-05-30T16:32:53Z</time>
      </trkpt>
      <trkpt lat="47.91019" lon="-3.94063">
        <ele>63</ele>
        <time>2017-05-30T16:33:18Z</time>
      </trkpt>
      <trkpt lat="47.91013" lon="-3.9406">
        <ele>63</ele>
        <time>2017-05-30T16:33:23Z</time>
      </trkpt>
      <trkpt lat="47.91007" lon="-3.9406">
        <ele>63</ele>
        <time>2017-05-30T16:33:28Z</time>
      </trkpt>
      <trkpt lat="47.90999" lon="-3.94055">
        <ele>63</ele>
        <time>2017-05-30T16:33:38Z</time>
      </trkpt>
      <trkpt lat="47.90985" lon="-3.94047">
        <ele>64</ele>
        <time>2017-05-30T16:33:53Z</time>
      </trkpt>
      <trkpt lat="47.90967" lon="-3.94041">
        <ele>64</ele>
        <time>2017-05-30T16:34:08Z</time>
      </trkpt>
      <trkpt lat="47.9096" lon="-3.94035">
        <ele>64</ele>
        <time>2017-05-30T16:34:13Z</time>
      </trkpt>
      <trkpt lat="47.90953" lon="-3.94033">
        <ele>64</ele>
        <time>2017-05-30T16:34:18Z</time>
      </trkpt>
      <trkpt lat="47.90946" lon="-3.94032">
        <ele>64</ele>
        <time>2017-05-30T16:34:23Z</time>
      </trkpt>
      <trkpt lat="47.90928" lon="-3.94029">
        <ele>64</ele>
        <time>2017-05-30T16:34:33Z</time>
      </trkpt>
      <trkpt lat="47.90911" lon="-3.94023">
        <ele>64</ele>
        <time>2017-05-30T16:34:43Z</time>
      </trkpt>
      <trkpt lat="47.90902" lon="-3.94022">
        <ele>64</ele>
        <time>2017-05-30T16:34:48Z</time>
      </trkpt>
      <trkpt lat="47.90894" lon="-3.94022">
        <ele>64</ele>
        <time>2017-05-30T16:34:53Z</time>
      </trkpt>
      <trkpt lat="47.90886" lon="-3.94024">
        <ele>64</ele>
        <time>2017-05-30T16:34:58Z</time>
      </trkpt>
      <trkpt lat="47.90878" lon="-3.94026">
        <ele>63</ele>
        <time>2017-05-30T16:35:03Z</time>
      </trkpt>
      <trkpt lat="47.90857" lon="-3.94029">
        <ele>63</ele>
        <time>2017-05-30T16:35:18Z</time>
      </trkpt>
      <trkpt lat="47.90845" lon="-3.94033">
        <ele>63</ele>
        <time>2017-05-30T16:35:28Z</time>
      </trkpt>
      <trkpt lat="47.90838" lon="-3.94032">
        <ele>63</ele>
        <time>2017-05-30T16:35:33Z</time>
      </trkpt>
      <trkpt lat="47.90831" lon="-3.94031">
        <ele>63</ele>
        <time>2017-05-30T16:35:38Z</time>
      </trkpt>
      <trkpt lat="47.90816" lon="-3.94031">
        <ele>62</ele>
        <time>2017-05-30T16:35:48Z</time>
      </trkpt>
      <trkpt lat="47.90807" lon="-3.94032">
        <ele>62</ele>
        <time>2017-05-30T16:35:53Z</time>
      </trkpt>
      <trkpt lat="47.90799" lon="-3.94032">
        <ele>62</ele>
        <time>2017-05-30T16:35:58Z</time>
      </trkpt>
      <trkpt lat="47.90792" lon="-3.94033">
        <ele>62</ele>
        <time>2017-05-30T16:36:03Z</time>
      </trkpt>
      <trkpt lat="47.90777" lon="-3.94036">
        <ele>62</ele>
        <time>2017-05-30T16:36:13Z</time>
      </trkpt>
      <trkpt lat="47.9077" lon="-3.94036">
        <ele>62</ele>
        <time>2017-05-30T16:36:18Z</time>
      </trkpt>
      <trkpt lat="47.90763" lon="-3.94039">
        <ele>61</ele>
        <time>2017-05-30T16:36:23Z</time>
      </trkpt>
      <trkpt lat="47.90756" lon="-3.9404">
        <ele>61</ele>
        <time>2017-05-30T16:36:28Z</time>
      </trkpt>
      <trkpt lat="47.90749" lon="-3.9404">
        <ele>61</ele>
        <time>2017-05-30T16:36:33Z</time>
      </trkpt>
      <trkpt lat="47.90742" lon="-3.94039">
        <ele>61</ele>
        <time>2017-05-30T16:36:48Z</time>
      </trkpt>
      <trkpt lat="47.90742" lon="-3.94039">
        <ele>61</ele>
        <time>2017-05-30T16:36:53Z</time>
      </trkpt>
      <trkpt lat="47.90742" lon="-3.94039">
        <ele>61</ele>
        <time>2017-05-30T16:36:58Z</time>
      </trkpt>
      <trkpt lat="47.90742" lon="-3.94039">
        <ele>61</ele>
        <time>2017-05-30T16:37:03Z</time>
      </trkpt>
      <trkpt lat="47.90737" lon="-3.94041">
        <ele>61</ele>
        <time>2017-05-30T16:37:33Z</time>
      </trkpt>
      <trkpt lat="47.90732" lon="-3.94043">
        <ele>61</ele>
        <time>2017-05-30T16:37:38Z</time>
      </trkpt>
      <trkpt lat="47.90726" lon="-3.94046">
        <ele>61</ele>
        <time>2017-05-30T16:37:43Z</time>
      </trkpt>
      <trkpt lat="47.90711" lon="-3.9405">
        <ele>60</ele>
        <time>2017-05-30T16:37:53Z</time>
      </trkpt>
      <trkpt lat="47.90704" lon="-3.94053">
        <ele>60</ele>
        <time>2017-05-30T16:37:58Z</time>
      </trkpt>
      <trkpt lat="47.907" lon="-3.94055">
        <ele>60</ele>
        <time>2017-05-30T16:38:03Z</time>
      </trkpt>
      <trkpt lat="47.90695" lon="-3.94057">
        <ele>60</ele>
        <time>2017-05-30T16:38:08Z</time>
      </trkpt>
      <trkpt lat="47.90677" lon="-3.94064">
        <ele>59</ele>
        <time>2017-05-30T16:38:18Z</time>
      </trkpt>
      <trkpt lat="47.90672" lon="-3.94067">
        <ele>59</ele>
        <time>2017-05-30T16:38:23Z</time>
      </trkpt>
      <trkpt lat="47.90665" lon="-3.94073">
        <ele>59</ele>
        <time>2017-05-30T16:38:33Z</time>
      </trkpt>
      <trkpt lat="47.90659" lon="-3.94074">
        <ele>59</ele>
        <time>2017-05-30T16:38:38Z</time>
      </trkpt>
      <trkpt lat="47.90652" lon="-3.94076">
        <ele>59</ele>
        <time>2017-05-30T16:38:43Z</time>
      </trkpt>
      <trkpt lat="47.90637" lon="-3.94081">
        <ele>58</ele>
        <time>2017-05-30T16:38:53Z</time>
      </trkpt>
      <trkpt lat="47.9063" lon="-3.94085">
        <ele>58</ele>
        <time>2017-05-30T16:38:58Z</time>
      </trkpt>
      <trkpt lat="47.90626" lon="-3.94089">
        <ele>58</ele>
        <time>2017-05-30T16:39:03Z</time>
      </trkpt>
      <trkpt lat="47.9062" lon="-3.94093">
        <ele>58</ele>
        <time>2017-05-30T16:39:08Z</time>
      </trkpt>
      <trkpt lat="47.90606" lon="-3.94099">
        <ele>58</ele>
        <time>2017-05-30T16:39:18Z</time>
      </trkpt>
      <trkpt lat="47.90598" lon="-3.94105">
        <ele>58</ele>
        <time>2017-05-30T16:39:28Z</time>
      </trkpt>
      <trkpt lat="47.90592" lon="-3.94106">
        <ele>58</ele>
        <time>2017-05-30T16:39:33Z</time>
      </trkpt>
      <trkpt lat="47.90586" lon="-3.94108">
        <ele>58</ele>
        <time>2017-05-30T16:39:38Z</time>
      </trkpt>
      <trkpt lat="47.90578" lon="-3.94108">
        <ele>58</ele>
        <time>2017-05-30T16:39:43Z</time>
      </trkpt>
      <trkpt lat="47.90564" lon="-3.94111">
        <ele>58</ele>
        <time>2017-05-30T16:39:53Z</time>
      </trkpt>
      <trkpt lat="47.90554" lon="-3.94108">
        <ele>57</ele>
        <time>2017-05-30T16:39:58Z</time>
      </trkpt>
      <trkpt lat="47.90548" lon="-3.94103">
        <ele>57</ele>
        <time>2017-05-30T16:40:03Z</time>
      </trkpt>
      <trkpt lat="47.90544" lon="-3.941">
        <ele>57</ele>
        <time>2017-05-30T16:40:08Z</time>
      </trkpt>
      <trkpt lat="47.9054" lon="-3.94096">
        <ele>57</ele>
        <time>2017-05-30T16:40:13Z</time>
      </trkpt>
      <trkpt lat="47.90537" lon="-3.94085">
        <ele>57</ele>
        <time>2017-05-30T16:40:18Z</time>
      </trkpt>
      <trkpt lat="47.90531" lon="-3.94075">
        <ele>56</ele>
        <time>2017-05-30T16:40:23Z</time>
      </trkpt>
      <trkpt lat="47.90517" lon="-3.94044">
        <ele>55</ele>
        <time>2017-05-30T16:40:38Z</time>
      </trkpt>
      <trkpt lat="47.90509" lon="-3.94034">
        <ele>55</ele>
        <time>2017-05-30T16:40:48Z</time>
      </trkpt>
      <trkpt lat="47.90503" lon="-3.94026">
        <ele>55</ele>
        <time>2017-05-30T16:40:58Z</time>
      </trkpt>
      <trkpt lat="47.90496" lon="-3.94018">
        <ele>54</ele>
        <time>2017-05-30T16:41:03Z</time>
      </trkpt>
      <trkpt lat="47.90488" lon="-3.94013">
        <ele>54</ele>
        <time>2017-05-30T16:41:08Z</time>
      </trkpt>
      <trkpt lat="47.90484" lon="-3.94004">
        <ele>54</ele>
        <time>2017-05-30T16:41:13Z</time>
      </trkpt>
      <trkpt lat="47.90477" lon="-3.93994">
        <ele>53</ele>
        <time>2017-05-30T16:41:18Z</time>
      </trkpt>
      <trkpt lat="47.90472" lon="-3.93988">
        <ele>53</ele>
        <time>2017-05-30T16:41:23Z</time>
      </trkpt>
      <trkpt lat="47.90461" lon="-3.93969">
        <ele>52</ele>
        <time>2017-05-30T16:41:38Z</time>
      </trkpt>
      <trkpt lat="47.90452" lon="-3.93953">
        <ele>52</ele>
        <time>2017-05-30T16:41:48Z</time>
      </trkpt>
      <trkpt lat="47.90447" lon="-3.93939">
        <ele>51</ele>
        <time>2017-05-30T16:41:53Z</time>
      </trkpt>
      <trkpt lat="47.90443" lon="-3.93931">
        <ele>51</ele>
        <time>2017-05-30T16:41:58Z</time>
      </trkpt>
      <trkpt lat="47.90441" lon="-3.93923">
        <ele>50</ele>
        <time>2017-05-30T16:42:03Z</time>
      </trkpt>
      <trkpt lat="47.90435" lon="-3.93906">
        <ele>50</ele>
        <time>2017-05-30T16:42:13Z</time>
      </trkpt>
      <trkpt lat="47.90433" lon="-3.93897">
        <ele>49</ele>
        <time>2017-05-30T16:42:18Z</time>
      </trkpt>
      <trkpt lat="47.90428" lon="-3.93876">
        <ele>48</ele>
        <time>2017-05-30T16:42:28Z</time>
      </trkpt>
      <trkpt lat="47.90425" lon="-3.93865">
        <ele>48</ele>
        <time>2017-05-30T16:42:33Z</time>
      </trkpt>
      <trkpt lat="47.9042" lon="-3.93854">
        <ele>47</ele>
        <time>2017-05-30T16:42:38Z</time>
      </trkpt>
      <trkpt lat="47.90415" lon="-3.93845">
        <ele>46</ele>
        <time>2017-05-30T16:42:43Z</time>
      </trkpt>
      <trkpt lat="47.90411" lon="-3.93838">
        <ele>46</ele>
        <time>2017-05-30T16:42:48Z</time>
      </trkpt>
      <trkpt lat="47.9041" lon="-3.93831">
        <ele>45</ele>
        <time>2017-05-30T16:42:53Z</time>
      </trkpt>
      <trkpt lat="47.90406" lon="-3.93821">
        <ele>45</ele>
        <time>2017-05-30T16:42:58Z</time>
      </trkpt>
      <trkpt lat="47.90405" lon="-3.9382">
        <ele>45</ele>
        <time>2017-05-30T16:43:03Z</time>
      </trkpt>
      <trkpt lat="47.90405" lon="-3.9382">
        <ele>45</ele>
        <time>2017-05-30T16:43:28Z</time>
      </trkpt>
      <trkpt lat="47.90405" lon="-3.9382">
        <ele>45</ele>
        <time>2017-05-30T16:43:48Z</time>
      </trkpt>
      <trkpt lat="47.90401" lon="-3.93804">
        <ele>44</ele>
        <time>2017-05-30T16:43:59Z</time>
      </trkpt>
      <trkpt lat="47.90393" lon="-3.93778">
        <ele>42</ele>
        <time>2017-05-30T16:44:14Z</time>
      </trkpt>
      <trkpt lat="47.9039" lon="-3.93773">
        <ele>41</ele>
        <time>2017-05-30T16:44:19Z</time>
      </trkpt>
      <trkpt lat="47.9039" lon="-3.93765">
        <ele>41</ele>
        <time>2017-05-30T16:44:24Z</time>
      </trkpt>
      <trkpt lat="47.90392" lon="-3.93758">
        <ele>41</ele>
        <time>2017-05-30T16:44:29Z</time>
      </trkpt>
      <trkpt lat="47.90395" lon="-3.93753">
        <ele>41</ele>
        <time>2017-05-30T16:44:34Z</time>
      </trkpt>
      <trkpt lat="47.90398" lon="-3.93747">
        <ele>41</ele>
        <time>2017-05-30T16:44:39Z</time>
      </trkpt>
      <trkpt lat="47.90402" lon="-3.93739">
        <ele>41</ele>
        <time>2017-05-30T16:44:44Z</time>
      </trkpt>
      <trkpt lat="47.90408" lon="-3.93729">
        <ele>41</ele>
        <time>2017-05-30T16:44:49Z</time>
      </trkpt>
      <trkpt lat="47.90413" lon="-3.93722">
        <ele>42</ele>
        <time>2017-05-30T16:44:54Z</time>
      </trkpt>
      <trkpt lat="47.90416" lon="-3.93713">
        <ele>42</ele>
        <time>2017-05-30T16:44:59Z</time>
      </trkpt>
      <trkpt lat="47.90419" lon="-3.93709">
        <ele>42</ele>
        <time>2017-05-30T16:45:04Z</time>
      </trkpt>
      <trkpt lat="47.9042" lon="-3.93703">
        <ele>42</ele>
        <time>2017-05-30T16:45:09Z</time>
      </trkpt>
      <trkpt lat="47.90423" lon="-3.93694">
        <ele>42</ele>
        <time>2017-05-30T16:45:14Z</time>
      </trkpt>
      <trkpt lat="47.90423" lon="-3.93682">
        <ele>41</ele>
        <time>2017-05-30T16:45:19Z</time>
      </trkpt>
      <trkpt lat="47.90421" lon="-3.93673">
        <ele>41</ele>
        <time>2017-05-30T16:45:24Z</time>
      </trkpt>
      <trkpt lat="47.90422" lon="-3.93671">
        <ele>41</ele>
        <time>2017-05-30T16:45:29Z</time>
      </trkpt>
      <trkpt lat="47.90422" lon="-3.93671">
        <ele>41</ele>
        <time>2017-05-30T16:45:34Z</time>
      </trkpt>
      <trkpt lat="47.90421" lon="-3.93671">
        <ele>41</ele>
        <time>2017-05-30T16:45:39Z</time>
      </trkpt>
      <trkpt lat="47.90421" lon="-3.93672">
        <ele>41</ele>
        <time>2017-05-30T16:45:49Z</time>
      </trkpt>
      <trkpt lat="47.90422" lon="-3.93672">
        <ele>41</ele>
        <time>2017-05-30T16:45:54Z</time>
      </trkpt>
      <trkpt lat="47.90422" lon="-3.93673">
        <ele>41</ele>
        <time>2017-05-30T16:45:59Z</time>
      </trkpt>
      <trkpt lat="47.90422" lon="-3.93673">
        <ele>41</ele>
        <time>2017-05-30T16:46:04Z</time>
      </trkpt>
      <trkpt lat="47.90422" lon="-3.93673">
        <ele>41</ele>
        <time>2017-05-30T16:46:09Z</time>
      </trkpt>
      <trkpt lat="47.90422" lon="-3.93673">
        <ele>41</ele>
        <time>2017-05-30T16:46:14Z</time>
      </trkpt>
      <trkpt lat="47.90422" lon="-3.93673">
        <ele>41</ele>
        <time>2017-05-30T16:46:19Z</time>
      </trkpt>
      <trkpt lat="47.90422" lon="-3.93673">
        <ele>41</ele>
        <time>2017-05-30T16:46:24Z</time>
      </trkpt>
      <trkpt lat="47.90422" lon="-3.9367">
        <ele>41</ele>
        <time>2017-05-30T16:46:49Z</time>
      </trkpt>
      <trkpt lat="47.90422" lon="-3.93667">
        <ele>41</ele>
        <time>2017-05-30T16:46:54Z</time>
      </trkpt>
      <trkpt lat="47.90422" lon="-3.93667">
        <ele>41</ele>
        <time>2017-05-30T16:47:04Z</time>
      </trkpt>
      <trkpt lat="47.90422" lon="-3.93667">
        <ele>41</ele>
        <time>2017-05-30T16:47:14Z</time>
      </trkpt>
      <trkpt lat="47.90422" lon="-3.93667">
        <ele>41</ele>
        <time>2017-05-30T16:47:19Z</time>
      </trkpt>
      <trkpt lat="47.90422" lon="-3.93667">
        <ele>41</ele>
        <time>2017-05-30T16:47:24Z</time>
      </trkpt>
      <trkpt lat="47.90422" lon="-3.93667">
        <ele>41</ele>
        <time>2017-05-30T16:47:29Z</time>
      </trkpt>
      <trkpt lat="47.90422" lon="-3.93667">
        <ele>41</ele>
        <time>2017-05-30T16:47:34Z</time>
      </trkpt>
      <trkpt lat="47.90423" lon="-3.93667">
        <ele>41</ele>
        <time>2017-05-30T16:48:24Z</time>
      </trkpt>
      <trkpt lat="47.90423" lon="-3.93667">
        <ele>41</ele>
        <time>2017-05-30T16:48:29Z</time>
      </trkpt>
      <trkpt lat="47.90423" lon="-3.93667">
        <ele>41</ele>
        <time>2017-05-30T16:48:44Z</time>
      </trkpt>
      <trkpt lat="47.90423" lon="-3.93666">
        <ele>41</ele>
        <time>2017-05-30T16:48:49Z</time>
      </trkpt>
      <trkpt lat="47.90423" lon="-3.93667">
        <ele>41</ele>
        <time>2017-05-30T16:48:54Z</time>
      </trkpt>
      <trkpt lat="47.90423" lon="-3.93667">
        <ele>41</ele>
        <time>2017-05-30T16:49:04Z</time>
      </trkpt>
      <trkpt lat="47.90423" lon="-3.93667">
        <ele>41</ele>
        <time>2017-05-30T16:49:14Z</time>
      </trkpt>
      <trkpt lat="47.90423" lon="-3.93668">
        <ele>41</ele>
        <time>2017-05-30T16:49:24Z</time>
      </trkpt>
      <trkpt lat="47.90422" lon="-3.9367">
        <ele>41</ele>
        <time>2017-05-30T16:49:29Z</time>
      </trkpt>
      <trkpt lat="47.90418" lon="-3.93675">
        <ele>41</ele>
        <time>2017-05-30T16:49:34Z</time>
      </trkpt>
      <trkpt lat="47.90413" lon="-3.93675">
        <ele>41</ele>
        <time>2017-05-30T16:49:39Z</time>
      </trkpt>
      <trkpt lat="47.90408" lon="-3.93673">
        <ele>41</ele>
        <time>2017-05-30T16:49:44Z</time>
      </trkpt>
      <trkpt lat="47.90403" lon="-3.93668">
        <ele>40</ele>
        <time>2017-05-30T16:49:49Z</time>
      </trkpt>
      <trkpt lat="47.90394" lon="-3.93663">
        <ele>40</ele>
        <time>2017-05-30T16:49:54Z</time>
      </trkpt>
      <trkpt lat="47.90383" lon="-3.93658">
        <ele>40</ele>
        <time>2017-05-30T16:50:04Z</time>
      </trkpt>
      <trkpt lat="47.9037" lon="-3.93649">
        <ele>41</ele>
        <time>2017-05-30T16:50:19Z</time>
      </trkpt>
      <trkpt lat="47.90366" lon="-3.93644">
        <ele>41</ele>
        <time>2017-05-30T16:50:24Z</time>
      </trkpt>
      <trkpt lat="47.90359" lon="-3.93628">
        <ele>42</ele>
        <time>2017-05-30T16:50:34Z</time>
      </trkpt>
      <trkpt lat="47.90356" lon="-3.93618">
        <ele>43</ele>
        <time>2017-05-30T16:50:39Z</time>
      </trkpt>
      <trkpt lat="47.90356" lon="-3.93605">
        <ele>44</ele>
        <time>2017-05-30T16:50:44Z</time>
      </trkpt>
      <trkpt lat="47.90359" lon="-3.93582">
        <ele>46</ele>
        <time>2017-05-30T16:50:54Z</time>
      </trkpt>
      <trkpt lat="47.90356" lon="-3.93574">
        <ele>46</ele>
        <time>2017-05-30T16:51:00Z</time>
      </trkpt>
      <trkpt lat="47.90358" lon="-3.93565">
        <ele>47</ele>
        <time>2017-05-30T16:51:04Z</time>
      </trkpt>
      <trkpt lat="47.90359" lon="-3.93555">
        <ele>47</ele>
        <time>2017-05-30T16:51:09Z</time>
      </trkpt>
      <trkpt lat="47.90359" lon="-3.93536">
        <ele>49</ele>
        <time>2017-05-30T16:51:19Z</time>
      </trkpt>
      <trkpt lat="47.90363" lon="-3.93521">
        <ele>50</ele>
        <time>2017-05-30T16:51:29Z</time>
      </trkpt>
      <trkpt lat="47.90366" lon="-3.93503">
        <ele>51</ele>
        <time>2017-05-30T16:51:39Z</time>
      </trkpt>
      <trkpt lat="47.90369" lon="-3.93499">
        <ele>51</ele>
        <time>2017-05-30T16:51:49Z</time>
      </trkpt>
      <trkpt lat="47.90369" lon="-3.93499">
        <ele>51</ele>
        <time>2017-05-30T16:51:54Z</time>
      </trkpt>
      <trkpt lat="47.90369" lon="-3.93499">
        <ele>51</ele>
        <time>2017-05-30T16:52:09Z</time>
      </trkpt>
      <trkpt lat="47.90368" lon="-3.93494">
        <ele>51</ele>
        <time>2017-05-30T16:52:24Z</time>
      </trkpt>
      <trkpt lat="47.90365" lon="-3.9349">
        <ele>51</ele>
        <time>2017-05-30T16:52:29Z</time>
      </trkpt>
      <trkpt lat="47.90357" lon="-3.93488">
        <ele>51</ele>
        <time>2017-05-30T16:52:34Z</time>
      </trkpt>
      <trkpt lat="47.9035" lon="-3.93488">
        <ele>51</ele>
        <time>2017-05-30T16:52:39Z</time>
      </trkpt>
      <trkpt lat="47.90344" lon="-3.9349">
        <ele>51</ele>
        <time>2017-05-30T16:52:44Z</time>
      </trkpt>
      <trkpt lat="47.90331" lon="-3.93488">
        <ele>51</ele>
        <time>2017-05-30T16:52:54Z</time>
      </trkpt>
      <trkpt lat="47.90327" lon="-3.93487">
        <ele>51</ele>
        <time>2017-05-30T16:52:59Z</time>
      </trkpt>
      <trkpt lat="47.9032" lon="-3.93486">
        <ele>51</ele>
        <time>2017-05-30T16:53:04Z</time>
      </trkpt>
      <trkpt lat="47.90314" lon="-3.93488">
        <ele>51</ele>
        <time>2017-05-30T16:53:09Z</time>
      </trkpt>
      <trkpt lat="47.90307" lon="-3.93491">
        <ele>51</ele>
        <time>2017-05-30T16:53:14Z</time>
      </trkpt>
      <trkpt lat="47.90296" lon="-3.93492">
        <ele>52</ele>
        <time>2017-05-30T16:53:24Z</time>
      </trkpt>
      <trkpt lat="47.90274" lon="-3.9349">
        <ele>53</ele>
        <time>2017-05-30T16:53:39Z</time>
      </trkpt>
      <trkpt lat="47.90264" lon="-3.93488">
        <ele>53</ele>
        <time>2017-05-30T16:53:49Z</time>
      </trkpt>
      <trkpt lat="47.9025" lon="-3.93491">
        <ele>54</ele>
        <time>2017-05-30T16:54:00Z</time>
      </trkpt>
      <trkpt lat="47.90243" lon="-3.93487">
        <ele>54</ele>
        <time>2017-05-30T16:54:04Z</time>
      </trkpt>
      <trkpt lat="47.90236" lon="-3.93489">
        <ele>54</ele>
        <time>2017-05-30T16:54:09Z</time>
      </trkpt>
      <trkpt lat="47.90225" lon="-3.93492">
        <ele>53</ele>
        <time>2017-05-30T16:54:19Z</time>
      </trkpt>
      <trkpt lat="47.90221" lon="-3.9349">
        <ele>53</ele>
        <time>2017-05-30T16:54:24Z</time>
      </trkpt>
      <trkpt lat="47.90211" lon="-3.93487">
        <ele>53</ele>
        <time>2017-05-30T16:54:29Z</time>
      </trkpt>
      <trkpt lat="47.90196" lon="-3.93485">
        <ele>52</ele>
        <time>2017-05-30T16:54:39Z</time>
      </trkpt>
      <trkpt lat="47.90189" lon="-3.93486">
        <ele>52</ele>
        <time>2017-05-30T16:54:44Z</time>
      </trkpt>
      <trkpt lat="47.90185" lon="-3.93487">
        <ele>51</ele>
        <time>2017-05-30T16:54:49Z</time>
      </trkpt>
      <trkpt lat="47.90181" lon="-3.93487">
        <ele>51</ele>
        <time>2017-05-30T16:54:54Z</time>
      </trkpt>
      <trkpt lat="47.90173" lon="-3.93489">
        <ele>51</ele>
        <time>2017-05-30T16:54:59Z</time>
      </trkpt>
      <trkpt lat="47.90165" lon="-3.93491">
        <ele>50</ele>
        <time>2017-05-30T16:55:04Z</time>
      </trkpt>
      <trkpt lat="47.90159" lon="-3.93489">
        <ele>50</ele>
        <time>2017-05-30T16:55:09Z</time>
      </trkpt>
      <trkpt lat="47.90154" lon="-3.9349">
        <ele>49</ele>
        <time>2017-05-30T16:55:14Z</time>
      </trkpt>
      <trkpt lat="47.90151" lon="-3.93489">
        <ele>49</ele>
        <time>2017-05-30T16:55:19Z</time>
      </trkpt>
      <trkpt lat="47.90146" lon="-3.93486">
        <ele>49</ele>
        <time>2017-05-30T16:55:24Z</time>
      </trkpt>
      <trkpt lat="47.90139" lon="-3.93482">
        <ele>48</ele>
        <time>2017-05-30T16:55:29Z</time>
      </trkpt>
      <trkpt lat="47.90131" lon="-3.93475">
        <ele>48</ele>
        <time>2017-05-30T16:55:34Z</time>
      </trkpt>
      <trkpt lat="47.90124" lon="-3.93466">
        <ele>48</ele>
        <time>2017-05-30T16:55:39Z</time>
      </trkpt>
      <trkpt lat="47.90096" lon="-3.93446">
        <ele>46</ele>
        <time>2017-05-30T16:56:04Z</time>
      </trkpt>
      <trkpt lat="47.90087" lon="-3.93445">
        <ele>45</ele>
        <time>2017-05-30T16:56:09Z</time>
      </trkpt>
      <trkpt lat="47.9008" lon="-3.93447">
        <ele>44</ele>
        <time>2017-05-30T16:56:14Z</time>
      </trkpt>
      <trkpt lat="47.90072" lon="-3.93448">
        <ele>43</ele>
        <time>2017-05-30T16:56:19Z</time>
      </trkpt>
      <trkpt lat="47.90058" lon="-3.93449">
        <ele>41</ele>
        <time>2017-05-30T16:56:29Z</time>
      </trkpt>
      <trkpt lat="47.90052" lon="-3.93451">
        <ele>40</ele>
        <time>2017-05-30T16:56:34Z</time>
      </trkpt>
      <trkpt lat="47.90046" lon="-3.93455">
        <ele>40</ele>
        <time>2017-05-30T16:56:40Z</time>
      </trkpt>
      <trkpt lat="47.90038" lon="-3.93459">
        <ele>39</ele>
        <time>2017-05-30T16:56:44Z</time>
      </trkpt>
      <trkpt lat="47.90032" lon="-3.93461">
        <ele>38</ele>
        <time>2017-05-30T16:56:49Z</time>
      </trkpt>
      <trkpt lat="47.90021" lon="-3.93467">
        <ele>37</ele>
        <time>2017-05-30T16:56:59Z</time>
      </trkpt>
      <trkpt lat="47.90015" lon="-3.93468">
        <ele>36</ele>
        <time>2017-05-30T16:57:04Z</time>
      </trkpt>
      <trkpt lat="47.90007" lon="-3.93469">
        <ele>35</ele>
        <time>2017-05-30T16:57:09Z</time>
      </trkpt>
      <trkpt lat="47.89977" lon="-3.93481">
        <ele>32</ele>
        <time>2017-05-30T16:57:29Z</time>
      </trkpt>
      <trkpt lat="47.89965" lon="-3.93494">
        <ele>30</ele>
        <time>2017-05-30T16:57:39Z</time>
      </trkpt>
      <trkpt lat="47.89959" lon="-3.93498">
        <ele>30</ele>
        <time>2017-05-30T16:57:44Z</time>
      </trkpt>
      <trkpt lat="47.89953" lon="-3.93499">
        <ele>30</ele>
        <time>2017-05-30T16:57:49Z</time>
      </trkpt>
      <trkpt lat="47.89946" lon="-3.93499">
        <ele>29</ele>
        <time>2017-05-30T16:57:54Z</time>
      </trkpt>
      <trkpt lat="47.8994" lon="-3.93503">
        <ele>29</ele>
        <time>2017-05-30T16:57:59Z</time>
      </trkpt>
      <trkpt lat="47.89938" lon="-3.93506">
        <ele>29</ele>
        <time>2017-05-30T16:58:04Z</time>
      </trkpt>
      <trkpt lat="47.89932" lon="-3.93509">
        <ele>29</ele>
        <time>2017-05-30T16:58:19Z</time>
      </trkpt>
      <trkpt lat="47.89929" lon="-3.93508">
        <ele>28</ele>
        <time>2017-05-30T16:58:29Z</time>
      </trkpt>
      <trkpt lat="47.89924" lon="-3.93497">
        <ele>29</ele>
        <time>2017-05-30T16:58:39Z</time>
      </trkpt>
      <trkpt lat="47.89922" lon="-3.93491">
        <ele>29</ele>
        <time>2017-05-30T16:58:44Z</time>
      </trkpt>
      <trkpt lat="47.89919" lon="-3.93486">
        <ele>29</ele>
        <time>2017-05-30T16:58:50Z</time>
      </trkpt>
      <trkpt lat="47.89918" lon="-3.93477">
        <ele>29</ele>
        <time>2017-05-30T16:58:54Z</time>
      </trkpt>
      <trkpt lat="47.89919" lon="-3.93468">
        <ele>29</ele>
        <time>2017-05-30T16:58:59Z</time>
      </trkpt>
      <trkpt lat="47.89918" lon="-3.9346">
        <ele>29</ele>
        <time>2017-05-30T16:59:04Z</time>
      </trkpt>
      <trkpt lat="47.8992" lon="-3.93452">
        <ele>30</ele>
        <time>2017-05-30T16:59:09Z</time>
      </trkpt>
      <trkpt lat="47.89923" lon="-3.93429">
        <ele>31</ele>
        <time>2017-05-30T16:59:19Z</time>
      </trkpt>
      <trkpt lat="47.89923" lon="-3.93416">
        <ele>31</ele>
        <time>2017-05-30T16:59:30Z</time>
      </trkpt>
      <trkpt lat="47.89926" lon="-3.93406">
        <ele>31</ele>
        <time>2017-05-30T16:59:34Z</time>
      </trkpt>
      <trkpt lat="47.89928" lon="-3.93396">
        <ele>32</ele>
        <time>2017-05-30T16:59:39Z</time>
      </trkpt>
      <trkpt lat="47.89927" lon="-3.93389">
        <ele>32</ele>
        <time>2017-05-30T16:59:44Z</time>
      </trkpt>
      <trkpt lat="47.89926" lon="-3.93389">
        <ele>32</ele>
        <time>2017-05-30T16:59:49Z</time>
      </trkpt>
      <trkpt lat="47.89927" lon="-3.93357">
        <ele>33</ele>
        <time>2017-05-30T17:00:09Z</time>
      </trkpt>
      <trkpt lat="47.89926" lon="-3.93338">
        <ele>34</ele>
        <time>2017-05-30T17:00:19Z</time>
      </trkpt>
      <trkpt lat="47.89928" lon="-3.93332">
        <ele>34</ele>
        <time>2017-05-30T17:00:24Z</time>
      </trkpt>
      <trkpt lat="47.89928" lon="-3.93331">
        <ele>34</ele>
        <time>2017-05-30T17:00:29Z</time>
      </trkpt>
      <trkpt lat="47.89928" lon="-3.93327">
        <ele>34</ele>
        <time>2017-05-30T17:00:34Z</time>
      </trkpt>
      <trkpt lat="47.89931" lon="-3.9332">
        <ele>35</ele>
        <time>2017-05-30T17:00:40Z</time>
      </trkpt>
      <trkpt lat="47.89934" lon="-3.93311">
        <ele>35</ele>
        <time>2017-05-30T17:00:44Z</time>
      </trkpt>
      <trkpt lat="47.89937" lon="-3.93298">
        <ele>36</ele>
        <time>2017-05-30T17:00:54Z</time>
      </trkpt>
      <trkpt lat="47.89944" lon="-3.93282">
        <ele>37</ele>
        <time>2017-05-30T17:01:04Z</time>
      </trkpt>
      <trkpt lat="47.89944" lon="-3.93274">
        <ele>37</ele>
        <time>2017-05-30T17:01:09Z</time>
      </trkpt>
      <trkpt lat="47.89945" lon="-3.93266">
        <ele>38</ele>
        <time>2017-05-30T17:01:14Z</time>
      </trkpt>
      <trkpt lat="47.89948" lon="-3.93259">
        <ele>38</ele>
        <time>2017-05-30T17:01:19Z</time>
      </trkpt>
      <trkpt lat="47.89952" lon="-3.9325">
        <ele>39</ele>
        <time>2017-05-30T17:01:24Z</time>
      </trkpt>
      <trkpt lat="47.89954" lon="-3.93238">
        <ele>40</ele>
        <time>2017-05-30T17:01:34Z</time>
      </trkpt>
      <trkpt lat="47.89962" lon="-3.93223">
        <ele>40</ele>
        <time>2017-05-30T17:01:44Z</time>
      </trkpt>
      <trkpt lat="47.89964" lon="-3.93218">
        <ele>41</ele>
        <time>2017-05-30T17:01:49Z</time>
      </trkpt>
      <trkpt lat="47.89966" lon="-3.93209">
        <ele>41</ele>
        <time>2017-05-30T17:01:54Z</time>
      </trkpt>
      <trkpt lat="47.89979" lon="-3.93168">
        <ele>42</ele>
        <time>2017-05-30T17:02:19Z</time>
      </trkpt>
      <trkpt lat="47.89978" lon="-3.93161">
        <ele>42</ele>
        <time>2017-05-30T17:02:24Z</time>
      </trkpt>
      <trkpt lat="47.89979" lon="-3.93153">
        <ele>42</ele>
        <time>2017-05-30T17:02:29Z</time>
      </trkpt>
      <trkpt lat="47.89983" lon="-3.93131">
        <ele>42</ele>
        <time>2017-05-30T17:02:39Z</time>
      </trkpt>
      <trkpt lat="47.89982" lon="-3.93117">
        <ele>42</ele>
        <time>2017-05-30T17:02:49Z</time>
      </trkpt>
      <trkpt lat="47.89985" lon="-3.93105">
        <ele>42</ele>
        <time>2017-05-30T17:02:54Z</time>
      </trkpt>
      <trkpt lat="47.89984" lon="-3.93088">
        <ele>42</ele>
        <time>2017-05-30T17:03:04Z</time>
      </trkpt>
      <trkpt lat="47.89982" lon="-3.93085">
        <ele>42</ele>
        <time>2017-05-30T17:03:09Z</time>
      </trkpt>
      <trkpt lat="47.89982" lon="-3.93085">
        <ele>42</ele>
        <time>2017-05-30T17:03:14Z</time>
      </trkpt>
      <trkpt lat="47.8998" lon="-3.93085">
        <ele>42</ele>
        <time>2017-05-30T17:03:19Z</time>
      </trkpt>
      <trkpt lat="47.89979" lon="-3.93086">
        <ele>42</ele>
        <time>2017-05-30T17:03:24Z</time>
      </trkpt>
      <trkpt lat="47.89978" lon="-3.93086">
        <ele>42</ele>
        <time>2017-05-30T17:03:39Z</time>
      </trkpt>
      <trkpt lat="47.89975" lon="-3.93086">
        <ele>41</ele>
        <time>2017-05-30T17:03:44Z</time>
      </trkpt>
      <trkpt lat="47.89975" lon="-3.93086">
        <ele>41</ele>
        <time>2017-05-30T17:03:49Z</time>
      </trkpt>
      <trkpt lat="47.89975" lon="-3.93084">
        <ele>41</ele>
        <time>2017-05-30T17:03:59Z</time>
      </trkpt>
      <trkpt lat="47.89972" lon="-3.93083">
        <ele>41</ele>
        <time>2017-05-30T17:04:04Z</time>
      </trkpt>
      <trkpt lat="47.89972" lon="-3.93083">
        <ele>41</ele>
        <time>2017-05-30T17:04:09Z</time>
      </trkpt>
      <trkpt lat="47.89969" lon="-3.93083">
        <ele>41</ele>
        <time>2017-05-30T17:04:14Z</time>
      </trkpt>
      <trkpt lat="47.89969" lon="-3.93083">
        <ele>41</ele>
        <time>2017-05-30T17:04:34Z</time>
      </trkpt>
      <trkpt lat="47.89969" lon="-3.93083">
        <ele>41</ele>
        <time>2017-05-30T17:04:39Z</time>
      </trkpt>
      <trkpt lat="47.89969" lon="-3.93083">
        <ele>41</ele>
        <time>2017-05-30T17:04:44Z</time>
      </trkpt>
      <trkpt lat="47.89969" lon="-3.93083">
        <ele>41</ele>
        <time>2017-05-30T17:04:49Z</time>
      </trkpt>
      <trkpt lat="47.89969" lon="-3.93083">
        <ele>41</ele>
        <time>2017-05-30T17:05:34Z</time>
      </trkpt>
      <trkpt lat="47.89968" lon="-3.93085">
        <ele>41</ele>
        <time>2017-05-30T17:05:39Z</time>
      </trkpt>
      <trkpt lat="47.89968" lon="-3.93086">
        <ele>41</ele>
        <time>2017-05-30T17:05:44Z</time>
      </trkpt>
      <trkpt lat="47.89968" lon="-3.93088">
        <ele>41</ele>
        <time>2017-05-30T17:05:49Z</time>
      </trkpt>
      <trkpt lat="47.89966" lon="-3.93091">
        <ele>41</ele>
        <time>2017-05-30T17:05:54Z</time>
      </trkpt>
      <trkpt lat="47.89965" lon="-3.93097">
        <ele>41</ele>
        <time>2017-05-30T17:06:19Z</time>
      </trkpt>
      <trkpt lat="47.89964" lon="-3.93101">
        <ele>41</ele>
        <time>2017-05-30T17:06:29Z</time>
      </trkpt>
      <trkpt lat="47.89964" lon="-3.93101">
        <ele>41</ele>
        <time>2017-05-30T17:06:34Z</time>
      </trkpt>
      <trkpt lat="47.89962" lon="-3.93101">
        <ele>41</ele>
        <time>2017-05-30T17:06:39Z</time>
      </trkpt>
      <trkpt lat="47.89962" lon="-3.93102">
        <ele>41</ele>
        <time>2017-05-30T17:06:54Z</time>
      </trkpt>
      <trkpt lat="47.89959" lon="-3.93107">
        <ele>41</ele>
        <time>2017-05-30T17:06:59Z</time>
      </trkpt>
      <trkpt lat="47.89958" lon="-3.93108">
        <ele>41</ele>
        <time>2017-05-30T17:07:09Z</time>
      </trkpt>
      <trkpt lat="47.89956" lon="-3.9311">
        <ele>41</ele>
        <time>2017-05-30T17:07:14Z</time>
      </trkpt>
      <trkpt lat="47.89956" lon="-3.93111">
        <ele>41</ele>
        <time>2017-05-30T17:07:34Z</time>
      </trkpt>
      <trkpt lat="47.89954" lon="-3.93109">
        <ele>41</ele>
        <time>2017-05-30T17:07:39Z</time>
      </trkpt>
      <trkpt lat="47.89954" lon="-3.93109">
        <ele>41</ele>
        <time>2017-05-30T17:07:49Z</time>
      </trkpt>
      <trkpt lat="47.89953" lon="-3.93104">
        <ele>41</ele>
        <time>2017-05-30T17:07:54Z</time>
      </trkpt>
      <trkpt lat="47.89944" lon="-3.9309">
        <ele>41</ele>
        <time>2017-05-30T17:08:09Z</time>
      </trkpt>
      <trkpt lat="47.89941" lon="-3.93082">
        <ele>41</ele>
        <time>2017-05-30T17:08:14Z</time>
      </trkpt>
      <trkpt lat="47.89937" lon="-3.93079">
        <ele>41</ele>
        <time>2017-05-30T17:08:19Z</time>
      </trkpt>
      <trkpt lat="47.89935" lon="-3.93076">
        <ele>40</ele>
        <time>2017-05-30T17:08:24Z</time>
      </trkpt>
      <trkpt lat="47.89934" lon="-3.9307">
        <ele>40</ele>
        <time>2017-05-30T17:08:29Z</time>
      </trkpt>
      <trkpt lat="47.89932" lon="-3.93067">
        <ele>40</ele>
        <time>2017-05-30T17:08:34Z</time>
      </trkpt>
      <trkpt lat="47.89928" lon="-3.93053">
        <ele>40</ele>
        <time>2017-05-30T17:08:44Z</time>
      </trkpt>
      <trkpt lat="47.89924" lon="-3.93045">
        <ele>40</ele>
        <time>2017-05-30T17:08:49Z</time>
      </trkpt>
      <trkpt lat="47.89923" lon="-3.93035">
        <ele>40</ele>
        <time>2017-05-30T17:08:54Z</time>
      </trkpt>
      <trkpt lat="47.89922" lon="-3.93027">
        <ele>40</ele>
        <time>2017-05-30T17:08:59Z</time>
      </trkpt>
      <trkpt lat="47.89919" lon="-3.93023">
        <ele>40</ele>
        <time>2017-05-30T17:09:04Z</time>
      </trkpt>
      <trkpt lat="47.89917" lon="-3.93019">
        <ele>40</ele>
        <time>2017-05-30T17:09:09Z</time>
      </trkpt>
      <trkpt lat="47.89915" lon="-3.93013">
        <ele>40</ele>
        <time>2017-05-30T17:09:14Z</time>
      </trkpt>
      <trkpt lat="47.89911" lon="-3.93008">
        <ele>40</ele>
        <time>2017-05-30T17:09:19Z</time>
      </trkpt>
      <trkpt lat="47.89911" lon="-3.93006">
        <ele>40</ele>
        <time>2017-05-30T17:09:24Z</time>
      </trkpt>
      <trkpt lat="47.89902" lon="-3.9299">
        <ele>39</ele>
        <time>2017-05-30T17:09:49Z</time>
      </trkpt>
      <trkpt lat="47.89897" lon="-3.92985">
        <ele>40</ele>
        <time>2017-05-30T17:09:54Z</time>
      </trkpt>
      <trkpt lat="47.89895" lon="-3.92982">
        <ele>40</ele>
        <time>2017-05-30T17:09:59Z</time>
      </trkpt>
      <trkpt lat="47.89895" lon="-3.92982">
        <ele>40</ele>
        <time>2017-05-30T17:10:04Z</time>
      </trkpt>
      <trkpt lat="47.89895" lon="-3.92982">
        <ele>40</ele>
        <time>2017-05-30T17:10:09Z</time>
      </trkpt>
      <trkpt lat="47.89895" lon="-3.92982">
        <ele>40</ele>
        <time>2017-05-30T17:10:14Z</time>
      </trkpt>
      <trkpt lat="47.89895" lon="-3.9298">
        <ele>40</ele>
        <time>2017-05-30T17:10:19Z</time>
      </trkpt>
      <trkpt lat="47.89894" lon="-3.92974">
        <ele>40</ele>
        <time>2017-05-30T17:10:29Z</time>
      </trkpt>
      <trkpt lat="47.89892" lon="-3.92969">
        <ele>40</ele>
        <time>2017-05-30T17:10:35Z</time>
      </trkpt>
      <trkpt lat="47.89892" lon="-3.92969">
        <ele>40</ele>
        <time>2017-05-30T17:10:49Z</time>
      </trkpt>
      <trkpt lat="47.8989" lon="-3.92968">
        <ele>40</ele>
        <time>2017-05-30T17:10:54Z</time>
      </trkpt>
      <trkpt lat="47.89883" lon="-3.92961">
        <ele>41</ele>
        <time>2017-05-30T17:10:59Z</time>
      </trkpt>
      <trkpt lat="47.89876" lon="-3.92957">
        <ele>42</ele>
        <time>2017-05-30T17:11:04Z</time>
      </trkpt>
      <trkpt lat="47.89867" lon="-3.92955">
        <ele>42</ele>
        <time>2017-05-30T17:11:09Z</time>
      </trkpt>
      <trkpt lat="47.89866" lon="-3.92954">
        <ele>43</ele>
        <time>2017-05-30T17:11:19Z</time>
      </trkpt>
      <trkpt lat="47.89864" lon="-3.92955">
        <ele>43</ele>
        <time>2017-05-30T17:11:24Z</time>
      </trkpt>
      <trkpt lat="47.89856" lon="-3.92957">
        <ele>44</ele>
        <time>2017-05-30T17:11:29Z</time>
      </trkpt>
      <trkpt lat="47.89848" lon="-3.92956">
        <ele>44</ele>
        <time>2017-05-30T17:11:34Z</time>
      </trkpt>
      <trkpt lat="47.89842" lon="-3.92958">
        <ele>45</ele>
        <time>2017-05-30T17:11:39Z</time>
      </trkpt>
      <trkpt lat="47.8983" lon="-3.92959">
        <ele>46</ele>
        <time>2017-05-30T17:11:49Z</time>
      </trkpt>
      <trkpt lat="47.89824" lon="-3.92959">
        <ele>46</ele>
        <time>2017-05-30T17:11:54Z</time>
      </trkpt>
      <trkpt lat="47.89818" lon="-3.92958">
        <ele>47</ele>
        <time>2017-05-30T17:11:59Z</time>
      </trkpt>
      <trkpt lat="47.89804" lon="-3.92956">
        <ele>48</ele>
        <time>2017-05-30T17:12:14Z</time>
      </trkpt>
      <trkpt lat="47.89797" lon="-3.92953">
        <ele>48</ele>
        <time>2017-05-30T17:12:19Z</time>
      </trkpt>
      <trkpt lat="47.89786" lon="-3.92956">
        <ele>49</ele>
        <time>2017-05-30T17:12:29Z</time>
      </trkpt>
      <trkpt lat="47.89782" lon="-3.92955">
        <ele>49</ele>
        <time>2017-05-30T17:12:34Z</time>
      </trkpt>
      <trkpt lat="47.89776" lon="-3.92953">
        <ele>49</ele>
        <time>2017-05-30T17:12:39Z</time>
      </trkpt>
      <trkpt lat="47.89763" lon="-3.92949">
        <ele>50</ele>
        <time>2017-05-30T17:12:49Z</time>
      </trkpt>
      <trkpt lat="47.89754" lon="-3.92944">
        <ele>51</ele>
        <time>2017-05-30T17:12:54Z</time>
      </trkpt>
      <trkpt lat="47.89749" lon="-3.92945">
        <ele>51</ele>
        <time>2017-05-30T17:12:59Z</time>
      </trkpt>
      <trkpt lat="47.89744" lon="-3.92943">
        <ele>51</ele>
        <time>2017-05-30T17:13:04Z</time>
      </trkpt>
      <trkpt lat="47.89741" lon="-3.92941">
        <ele>51</ele>
        <time>2017-05-30T17:13:09Z</time>
      </trkpt>
      <trkpt lat="47.89711" lon="-3.92935">
        <ele>52</ele>
        <time>2017-05-30T17:13:34Z</time>
      </trkpt>
      <trkpt lat="47.89699" lon="-3.92934">
        <ele>52</ele>
        <time>2017-05-30T17:13:44Z</time>
      </trkpt>
      <trkpt lat="47.89695" lon="-3.92934">
        <ele>53</ele>
        <time>2017-05-30T17:13:49Z</time>
      </trkpt>
      <trkpt lat="47.89688" lon="-3.92937">
        <ele>53</ele>
        <time>2017-05-30T17:13:54Z</time>
      </trkpt>
      <trkpt lat="47.89682" lon="-3.92934">
        <ele>53</ele>
        <time>2017-05-30T17:13:59Z</time>
      </trkpt>
      <trkpt lat="47.89667" lon="-3.92938">
        <ele>53</ele>
        <time>2017-05-30T17:14:09Z</time>
      </trkpt>
      <trkpt lat="47.89663" lon="-3.92938">
        <ele>53</ele>
        <time>2017-05-30T17:14:14Z</time>
      </trkpt>
      <trkpt lat="47.8965" lon="-3.92942">
        <ele>54</ele>
        <time>2017-05-30T17:14:24Z</time>
      </trkpt>
      <trkpt lat="47.89636" lon="-3.92943">
        <ele>54</ele>
        <time>2017-05-30T17:14:39Z</time>
      </trkpt>
      <trkpt lat="47.89623" lon="-3.92946">
        <ele>54</ele>
        <time>2017-05-30T17:14:50Z</time>
      </trkpt>
      <trkpt lat="47.8961" lon="-3.92951">
        <ele>55</ele>
        <time>2017-05-30T17:15:00Z</time>
      </trkpt>
      <trkpt lat="47.89607" lon="-3.92953">
        <ele>55</ele>
        <time>2017-05-30T17:15:04Z</time>
      </trkpt>
      <trkpt lat="47.89601" lon="-3.92954">
        <ele>55</ele>
        <time>2017-05-30T17:15:09Z</time>
      </trkpt>
      <trkpt lat="47.89598" lon="-3.92957">
        <ele>55</ele>
        <time>2017-05-30T17:15:14Z</time>
      </trkpt>
      <trkpt lat="47.89593" lon="-3.92958">
        <ele>56</ele>
        <time>2017-05-30T17:15:34Z</time>
      </trkpt>
      <trkpt lat="47.89585" lon="-3.92961">
        <ele>56</ele>
        <time>2017-05-30T17:15:44Z</time>
      </trkpt>
      <trkpt lat="47.89576" lon="-3.92966">
        <ele>56</ele>
        <time>2017-05-30T17:15:54Z</time>
      </trkpt>
      <trkpt lat="47.89571" lon="-3.92966">
        <ele>56</ele>
        <time>2017-05-30T17:15:59Z</time>
      </trkpt>
      <trkpt lat="47.89565" lon="-3.92967">
        <ele>57</ele>
        <time>2017-05-30T17:16:04Z</time>
      </trkpt>
      <trkpt lat="47.89557" lon="-3.92965">
        <ele>57</ele>
        <time>2017-05-30T17:16:24Z</time>
      </trkpt>
      <trkpt lat="47.89555" lon="-3.92964">
        <ele>57</ele>
        <time>2017-05-30T17:16:29Z</time>
      </trkpt>
      <trkpt lat="47.89544" lon="-3.92967">
        <ele>57</ele>
        <time>2017-05-30T17:16:39Z</time>
      </trkpt>
      <trkpt lat="47.8954" lon="-3.92971">
        <ele>57</ele>
        <time>2017-05-30T17:16:44Z</time>
      </trkpt>
      <trkpt lat="47.89527" lon="-3.92966">
        <ele>57</ele>
        <time>2017-05-30T17:16:54Z</time>
      </trkpt>
      <trkpt lat="47.89521" lon="-3.92964">
        <ele>57</ele>
        <time>2017-05-30T17:16:59Z</time>
      </trkpt>
      <trkpt lat="47.89512" lon="-3.92959">
        <ele>57</ele>
        <time>2017-05-30T17:17:09Z</time>
      </trkpt>
      <trkpt lat="47.89508" lon="-3.92962">
        <ele>57</ele>
        <time>2017-05-30T17:17:14Z</time>
      </trkpt>
      <trkpt lat="47.89507" lon="-3.92962">
        <ele>57</ele>
        <time>2017-05-30T17:17:24Z</time>
      </trkpt>
      <trkpt lat="47.89506" lon="-3.92963">
        <ele>57</ele>
        <time>2017-05-30T17:17:34Z</time>
      </trkpt>
      <trkpt lat="47.89505" lon="-3.92965">
        <ele>57</ele>
        <time>2017-05-30T17:17:39Z</time>
      </trkpt>
      <trkpt lat="47.89505" lon="-3.92964">
        <ele>57</ele>
        <time>2017-05-30T17:17:44Z</time>
      </trkpt>
      <trkpt lat="47.89505" lon="-3.92964">
        <ele>57</ele>
        <time>2017-05-30T17:17:54Z</time>
      </trkpt>
      <trkpt lat="47.89507" lon="-3.92957">
        <ele>57</ele>
        <time>2017-05-30T17:18:00Z</time>
      </trkpt>
      <trkpt lat="47.89509" lon="-3.92948">
        <ele>58</ele>
        <time>2017-05-30T17:18:05Z</time>
      </trkpt>
      <trkpt lat="47.8951" lon="-3.92938">
        <ele>58</ele>
        <time>2017-05-30T17:18:10Z</time>
      </trkpt>
      <trkpt lat="47.89514" lon="-3.92928">
        <ele>58</ele>
        <time>2017-05-30T17:18:16Z</time>
      </trkpt>
      <trkpt lat="47.89519" lon="-3.92909">
        <ele>59</ele>
        <time>2017-05-30T17:18:26Z</time>
      </trkpt>
      <trkpt lat="47.89518" lon="-3.92901">
        <ele>59</ele>
        <time>2017-05-30T17:18:31Z</time>
      </trkpt>
      <trkpt lat="47.89518" lon="-3.92893">
        <ele>59</ele>
        <time>2017-05-30T17:18:36Z</time>
      </trkpt>
      <trkpt lat="47.89521" lon="-3.92884">
        <ele>60</ele>
        <time>2017-05-30T17:18:41Z</time>
      </trkpt>
      <trkpt lat="47.89521" lon="-3.92877">
        <ele>60</ele>
        <time>2017-05-30T17:18:46Z</time>
      </trkpt>
      <trkpt lat="47.89526" lon="-3.92853">
        <ele>60</ele>
        <time>2017-05-30T17:19:02Z</time>
      </trkpt>
      <trkpt lat="47.89525" lon="-3.92843">
        <ele>61</ele>
        <time>2017-05-30T17:19:07Z</time>
      </trkpt>
      <trkpt lat="47.89526" lon="-3.92823">
        <ele>61</ele>
        <time>2017-05-30T17:19:17Z</time>
      </trkpt>
      <trkpt lat="47.89531" lon="-3.92785">
        <ele>61</ele>
        <time>2017-05-30T17:19:37Z</time>
      </trkpt>
      <trkpt lat="47.89529" lon="-3.92778">
        <ele>62</ele>
        <time>2017-05-30T17:19:42Z</time>
      </trkpt>
      <trkpt lat="47.89529" lon="-3.92768">
        <ele>62</ele>
        <time>2017-05-30T17:19:47Z</time>
      </trkpt>
      <trkpt lat="47.89531" lon="-3.92755">
        <ele>62</ele>
        <time>2017-05-30T17:19:52Z</time>
      </trkpt>
      <trkpt lat="47.89533" lon="-3.92728">
        <ele>61</ele>
        <time>2017-05-30T17:20:07Z</time>
      </trkpt>
      <trkpt lat="47.89532" lon="-3.92719">
        <ele>61</ele>
        <time>2017-05-30T17:20:12Z</time>
      </trkpt>
      <trkpt lat="47.8953" lon="-3.9271">
        <ele>61</ele>
        <time>2017-05-30T17:20:17Z</time>
      </trkpt>
      <trkpt lat="47.89529" lon="-3.9269">
        <ele>61</ele>
        <time>2017-05-30T17:20:27Z</time>
      </trkpt>
      <trkpt lat="47.89528" lon="-3.92679">
        <ele>61</ele>
        <time>2017-05-30T17:20:32Z</time>
      </trkpt>
      <trkpt lat="47.89526" lon="-3.92659">
        <ele>61</ele>
        <time>2017-05-30T17:20:42Z</time>
      </trkpt>
      <trkpt lat="47.89526" lon="-3.92649">
        <ele>60</ele>
        <time>2017-05-30T17:20:47Z</time>
      </trkpt>
      <trkpt lat="47.89524" lon="-3.92638">
        <ele>60</ele>
        <time>2017-05-30T17:20:52Z</time>
      </trkpt>
      <trkpt lat="47.8952" lon="-3.92611">
        <ele>60</ele>
        <time>2017-05-30T17:21:07Z</time>
      </trkpt>
      <trkpt lat="47.89517" lon="-3.92597">
        <ele>60</ele>
        <time>2017-05-30T17:21:12Z</time>
      </trkpt>
      <trkpt lat="47.89516" lon="-3.92586">
        <ele>60</ele>
        <time>2017-05-30T17:21:17Z</time>
      </trkpt>
      <trkpt lat="47.89516" lon="-3.92579">
        <ele>60</ele>
        <time>2017-05-30T17:21:22Z</time>
      </trkpt>
      <trkpt lat="47.89516" lon="-3.92564">
        <ele>60</ele>
        <time>2017-05-30T17:21:32Z</time>
      </trkpt>
      <trkpt lat="47.89514" lon="-3.92556">
        <ele>60</ele>
        <time>2017-05-30T17:21:37Z</time>
      </trkpt>
      <trkpt lat="47.89511" lon="-3.92545">
        <ele>60</ele>
        <time>2017-05-30T17:21:42Z</time>
      </trkpt>
      <trkpt lat="47.89508" lon="-3.92533">
        <ele>61</ele>
        <time>2017-05-30T17:21:47Z</time>
      </trkpt>
      <trkpt lat="47.89507" lon="-3.92523">
        <ele>61</ele>
        <time>2017-05-30T17:21:52Z</time>
      </trkpt>
      <trkpt lat="47.89503" lon="-3.92504">
        <ele>61</ele>
        <time>2017-05-30T17:22:02Z</time>
      </trkpt>
      <trkpt lat="47.89502" lon="-3.92496">
        <ele>61</ele>
        <time>2017-05-30T17:22:07Z</time>
      </trkpt>
      <trkpt lat="47.89502" lon="-3.92487">
        <ele>61</ele>
        <time>2017-05-30T17:22:12Z</time>
      </trkpt>
      <trkpt lat="47.89501" lon="-3.92478">
        <ele>61</ele>
        <time>2017-05-30T17:22:17Z</time>
      </trkpt>
      <trkpt lat="47.89498" lon="-3.92462">
        <ele>60</ele>
        <time>2017-05-30T17:22:27Z</time>
      </trkpt>
      <trkpt lat="47.89496" lon="-3.9245">
        <ele>60</ele>
        <time>2017-05-30T17:22:32Z</time>
      </trkpt>
      <trkpt lat="47.89491" lon="-3.92431">
        <ele>59</ele>
        <time>2017-05-30T17:22:42Z</time>
      </trkpt>
      <trkpt lat="47.89487" lon="-3.92418">
        <ele>59</ele>
        <time>2017-05-30T17:22:47Z</time>
      </trkpt>
      <trkpt lat="47.89488" lon="-3.92407">
        <ele>59</ele>
        <time>2017-05-30T17:22:52Z</time>
      </trkpt>
      <trkpt lat="47.89488" lon="-3.92402">
        <ele>59</ele>
        <time>2017-05-30T17:22:57Z</time>
      </trkpt>
      <trkpt lat="47.89486" lon="-3.9239">
        <ele>59</ele>
        <time>2017-05-30T17:23:07Z</time>
      </trkpt>
      <trkpt lat="47.89482" lon="-3.92348">
        <ele>59</ele>
        <time>2017-05-30T17:23:22Z</time>
      </trkpt>
      <trkpt lat="47.89479" lon="-3.92338">
        <ele>59</ele>
        <time>2017-05-30T17:23:27Z</time>
      </trkpt>
      <trkpt lat="47.89479" lon="-3.92331">
        <ele>59</ele>
        <time>2017-05-30T17:23:32Z</time>
      </trkpt>
      <trkpt lat="47.89481" lon="-3.92315">
        <ele>58</ele>
        <time>2017-05-30T17:23:42Z</time>
      </trkpt>
      <trkpt lat="47.89481" lon="-3.92303">
        <ele>58</ele>
        <time>2017-05-30T17:23:47Z</time>
      </trkpt>
      <trkpt lat="47.8948" lon="-3.92276">
        <ele>58</ele>
        <time>2017-05-30T17:23:57Z</time>
      </trkpt>
      <trkpt lat="47.89478" lon="-3.92267">
        <ele>58</ele>
        <time>2017-05-30T17:24:02Z</time>
      </trkpt>
      <trkpt lat="47.89479" lon="-3.9226">
        <ele>58</ele>
        <time>2017-05-30T17:24:07Z</time>
      </trkpt>
      <trkpt lat="47.89481" lon="-3.92245">
        <ele>58</ele>
        <time>2017-05-30T17:24:17Z</time>
      </trkpt>
      <trkpt lat="47.89482" lon="-3.92236">
        <ele>58</ele>
        <time>2017-05-30T17:24:22Z</time>
      </trkpt>
      <trkpt lat="47.89482" lon="-3.92225">
        <ele>58</ele>
        <time>2017-05-30T17:24:27Z</time>
      </trkpt>
      <trkpt lat="47.89481" lon="-3.92212">
        <ele>58</ele>
        <time>2017-05-30T17:24:32Z</time>
      </trkpt>
      <trkpt lat="47.89481" lon="-3.92198">
        <ele>58</ele>
        <time>2017-05-30T17:24:37Z</time>
      </trkpt>
      <trkpt lat="47.8948" lon="-3.92191">
        <ele>58</ele>
        <time>2017-05-30T17:24:42Z</time>
      </trkpt>
      <trkpt lat="47.8948" lon="-3.92183">
        <ele>58</ele>
        <time>2017-05-30T17:24:47Z</time>
      </trkpt>
      <trkpt lat="47.89481" lon="-3.92173">
        <ele>58</ele>
        <time>2017-05-30T17:24:52Z</time>
      </trkpt>
      <trkpt lat="47.89485" lon="-3.92143">
        <ele>58</ele>
        <time>2017-05-30T17:25:07Z</time>
      </trkpt>
      <trkpt lat="47.89484" lon="-3.92127">
        <ele>59</ele>
        <time>2017-05-30T17:25:17Z</time>
      </trkpt>
      <trkpt lat="47.89486" lon="-3.92117">
        <ele>59</ele>
        <time>2017-05-30T17:25:22Z</time>
      </trkpt>
      <trkpt lat="47.89487" lon="-3.92105">
        <ele>59</ele>
        <time>2017-05-30T17:25:27Z</time>
      </trkpt>
      <trkpt lat="47.89487" lon="-3.92097">
        <ele>60</ele>
        <time>2017-05-30T17:25:32Z</time>
      </trkpt>
      <trkpt lat="47.8949" lon="-3.92074">
        <ele>60</ele>
        <time>2017-05-30T17:25:42Z</time>
      </trkpt>
      <trkpt lat="47.89494" lon="-3.92064">
        <ele>60</ele>
        <time>2017-05-30T17:25:48Z</time>
      </trkpt>
      <trkpt lat="47.89496" lon="-3.92056">
        <ele>60</ele>
        <time>2017-05-30T17:25:52Z</time>
      </trkpt>
      <trkpt lat="47.89497" lon="-3.92048">
        <ele>61</ele>
        <time>2017-05-30T17:25:57Z</time>
      </trkpt>
      <trkpt lat="47.8951" lon="-3.92008">
        <ele>61</ele>
        <time>2017-05-30T17:26:22Z</time>
      </trkpt>
      <trkpt lat="47.89512" lon="-3.92">
        <ele>61</ele>
        <time>2017-05-30T17:26:27Z</time>
      </trkpt>
      <trkpt lat="47.89514" lon="-3.91992">
        <ele>62</ele>
        <time>2017-05-30T17:26:32Z</time>
      </trkpt>
      <trkpt lat="47.89519" lon="-3.91962">
        <ele>62</ele>
        <time>2017-05-30T17:26:47Z</time>
      </trkpt>
      <trkpt lat="47.89524" lon="-3.91952">
        <ele>62</ele>
        <time>2017-05-30T17:26:52Z</time>
      </trkpt>
      <trkpt lat="47.89532" lon="-3.9193">
        <ele>62</ele>
        <time>2017-05-30T17:27:02Z</time>
      </trkpt>
      <trkpt lat="47.89535" lon="-3.91926">
        <ele>63</ele>
        <time>2017-05-30T17:27:07Z</time>
      </trkpt>
      <trkpt lat="47.89538" lon="-3.91917">
        <ele>63</ele>
        <time>2017-05-30T17:27:12Z</time>
      </trkpt>
      <trkpt lat="47.89544" lon="-3.91899">
        <ele>63</ele>
        <time>2017-05-30T17:27:22Z</time>
      </trkpt>
      <trkpt lat="47.89556" lon="-3.91868">
        <ele>63</ele>
        <time>2017-05-30T17:27:42Z</time>
      </trkpt>
      <trkpt lat="47.8956" lon="-3.91861">
        <ele>63</ele>
        <time>2017-05-30T17:27:47Z</time>
      </trkpt>
      <trkpt lat="47.89564" lon="-3.91852">
        <ele>63</ele>
        <time>2017-05-30T17:27:52Z</time>
      </trkpt>
      <trkpt lat="47.89571" lon="-3.91842">
        <ele>63</ele>
        <time>2017-05-30T17:28:02Z</time>
      </trkpt>
      <trkpt lat="47.89577" lon="-3.91823">
        <ele>64</ele>
        <time>2017-05-30T17:28:12Z</time>
      </trkpt>
      <trkpt lat="47.89581" lon="-3.91815">
        <ele>64</ele>
        <time>2017-05-30T17:28:17Z</time>
      </trkpt>
      <trkpt lat="47.89593" lon="-3.91797">
        <ele>64</ele>
        <time>2017-05-30T17:28:27Z</time>
      </trkpt>
      <trkpt lat="47.89605" lon="-3.91776">
        <ele>64</ele>
        <time>2017-05-30T17:28:37Z</time>
      </trkpt>
      <trkpt lat="47.89609" lon="-3.91772">
        <ele>64</ele>
        <time>2017-05-30T17:28:42Z</time>
      </trkpt>
      <trkpt lat="47.89614" lon="-3.91762">
        <ele>64</ele>
        <time>2017-05-30T17:28:47Z</time>
      </trkpt>
      <trkpt lat="47.89616" lon="-3.91756">
        <ele>64</ele>
        <time>2017-05-30T17:28:52Z</time>
      </trkpt>
      <trkpt lat="47.89628" lon="-3.91737">
        <ele>64</ele>
        <time>2017-05-30T17:29:07Z</time>
      </trkpt>
      <trkpt lat="47.89633" lon="-3.91733">
        <ele>64</ele>
        <time>2017-05-30T17:29:12Z</time>
      </trkpt>
      <trkpt lat="47.89638" lon="-3.9173">
        <ele>64</ele>
        <time>2017-05-30T17:29:17Z</time>
      </trkpt>
      <trkpt lat="47.89645" lon="-3.91725">
        <ele>63</ele>
        <time>2017-05-30T17:29:22Z</time>
      </trkpt>
      <trkpt lat="47.8965" lon="-3.91718">
        <ele>63</ele>
        <time>2017-05-30T17:29:27Z</time>
      </trkpt>
      <trkpt lat="47.89656" lon="-3.91712">
        <ele>63</ele>
        <time>2017-05-30T17:29:32Z</time>
      </trkpt>
      <trkpt lat="47.89659" lon="-3.91708">
        <ele>63</ele>
        <time>2017-05-30T17:29:37Z</time>
      </trkpt>
      <trkpt lat="47.89663" lon="-3.91703">
        <ele>63</ele>
        <time>2017-05-30T17:29:42Z</time>
      </trkpt>
      <trkpt lat="47.89668" lon="-3.91697">
        <ele>63</ele>
        <time>2017-05-30T17:29:47Z</time>
      </trkpt>
      <trkpt lat="47.89671" lon="-3.91696">
        <ele>63</ele>
        <time>2017-05-30T17:29:52Z</time>
      </trkpt>
      <trkpt lat="47.89677" lon="-3.91693">
        <ele>63</ele>
        <time>2017-05-30T17:29:57Z</time>
      </trkpt>
      <trkpt lat="47.89682" lon="-3.91685">
        <ele>63</ele>
        <time>2017-05-30T17:30:02Z</time>
      </trkpt>
      <trkpt lat="47.89686" lon="-3.91678">
        <ele>63</ele>
        <time>2017-05-30T17:30:07Z</time>
      </trkpt>
      <trkpt lat="47.8972" lon="-3.91646">
        <ele>63</ele>
        <time>2017-05-30T17:30:37Z</time>
      </trkpt>
      <trkpt lat="47.89726" lon="-3.91644">
        <ele>63</ele>
        <time>2017-05-30T17:30:42Z</time>
      </trkpt>
      <trkpt lat="47.89732" lon="-3.91639">
        <ele>63</ele>
        <time>2017-05-30T17:30:48Z</time>
      </trkpt>
      <trkpt lat="47.89739" lon="-3.91634">
        <ele>63</ele>
        <time>2017-05-30T17:30:52Z</time>
      </trkpt>
      <trkpt lat="47.89753" lon="-3.91623">
        <ele>63</ele>
        <time>2017-05-30T17:31:02Z</time>
      </trkpt>
      <trkpt lat="47.89764" lon="-3.91621">
        <ele>63</ele>
        <time>2017-05-30T17:31:12Z</time>
      </trkpt>
      <trkpt lat="47.89769" lon="-3.91621">
        <ele>63</ele>
        <time>2017-05-30T17:31:17Z</time>
      </trkpt>
      <trkpt lat="47.89781" lon="-3.91609">
        <ele>64</ele>
        <time>2017-05-30T17:31:27Z</time>
      </trkpt>
      <trkpt lat="47.89805" lon="-3.91599">
        <ele>66</ele>
        <time>2017-05-30T17:31:42Z</time>
      </trkpt>
      <trkpt lat="47.89812" lon="-3.91594">
        <ele>66</ele>
        <time>2017-05-30T17:31:47Z</time>
      </trkpt>
      <trkpt lat="47.89818" lon="-3.91594">
        <ele>66</ele>
        <time>2017-05-30T17:31:52Z</time>
      </trkpt>
      <trkpt lat="47.89818" lon="-3.91594">
        <ele>66</ele>
        <time>2017-05-30T17:31:57Z</time>
      </trkpt>
      <trkpt lat="47.89818" lon="-3.91594">
        <ele>66</ele>
        <time>2017-05-30T17:32:03Z</time>
      </trkpt>
      <trkpt lat="47.89819" lon="-3.91599">
        <ele>66</ele>
        <time>2017-05-30T17:32:12Z</time>
      </trkpt>
      <trkpt lat="47.89822" lon="-3.91608">
        <ele>66</ele>
        <time>2017-05-30T17:32:17Z</time>
      </trkpt>
      <trkpt lat="47.89825" lon="-3.9163">
        <ele>65</ele>
        <time>2017-05-30T17:32:27Z</time>
      </trkpt>
      <trkpt lat="47.89824" lon="-3.91641">
        <ele>64</ele>
        <time>2017-05-30T17:32:32Z</time>
      </trkpt>
      <trkpt lat="47.89827" lon="-3.9165">
        <ele>64</ele>
        <time>2017-05-30T17:32:37Z</time>
      </trkpt>
      <trkpt lat="47.89826" lon="-3.91657">
        <ele>63</ele>
        <time>2017-05-30T17:32:42Z</time>
      </trkpt>
      <trkpt lat="47.89823" lon="-3.91662">
        <ele>63</ele>
        <time>2017-05-30T17:32:47Z</time>
      </trkpt>
      <trkpt lat="47.89823" lon="-3.91662">
        <ele>63</ele>
        <time>2017-05-30T17:33:07Z</time>
      </trkpt>
      <trkpt lat="47.89823" lon="-3.91653">
        <ele>63</ele>
        <time>2017-05-30T17:33:22Z</time>
      </trkpt>
      <trkpt lat="47.89822" lon="-3.91642">
        <ele>64</ele>
        <time>2017-05-30T17:33:27Z</time>
      </trkpt>
      <trkpt lat="47.89818" lon="-3.91635">
        <ele>64</ele>
        <time>2017-05-30T17:33:32Z</time>
      </trkpt>
      <trkpt lat="47.89819" lon="-3.91627">
        <ele>65</ele>
        <time>2017-05-30T17:33:37Z</time>
      </trkpt>
      <trkpt lat="47.89819" lon="-3.9161">
        <ele>65</ele>
        <time>2017-05-30T17:33:47Z</time>
      </trkpt>
      <trkpt lat="47.89817" lon="-3.91602">
        <ele>66</ele>
        <time>2017-05-30T17:33:52Z</time>
      </trkpt>
      <trkpt lat="47.89815" lon="-3.91596">
        <ele>66</ele>
        <time>2017-05-30T17:33:57Z</time>
      </trkpt>
      <trkpt lat="47.89819" lon="-3.91593">
        <ele>66</ele>
        <time>2017-05-30T17:34:02Z</time>
      </trkpt>
      <trkpt lat="47.89824" lon="-3.91592">
        <ele>67</ele>
        <time>2017-05-30T17:34:07Z</time>
      </trkpt>
      <trkpt lat="47.8983" lon="-3.9159">
        <ele>67</ele>
        <time>2017-05-30T17:34:12Z</time>
      </trkpt>
      <trkpt lat="47.89837" lon="-3.91586">
        <ele>68</ele>
        <time>2017-05-30T17:34:17Z</time>
      </trkpt>
      <trkpt lat="47.89844" lon="-3.91585">
        <ele>68</ele>
        <time>2017-05-30T17:34:22Z</time>
      </trkpt>
      <trkpt lat="47.89855" lon="-3.9158">
        <ele>68</ele>
        <time>2017-05-30T17:34:32Z</time>
      </trkpt>
      <trkpt lat="47.8986" lon="-3.9158">
        <ele>69</ele>
        <time>2017-05-30T17:34:37Z</time>
      </trkpt>
      <trkpt lat="47.89865" lon="-3.9158">
        <ele>69</ele>
        <time>2017-05-30T17:34:42Z</time>
      </trkpt>
      <trkpt lat="47.89888" lon="-3.91577">
        <ele>70</ele>
        <time>2017-05-30T17:34:57Z</time>
      </trkpt>
      <trkpt lat="47.89904" lon="-3.91573">
        <ele>70</ele>
        <time>2017-05-30T17:35:07Z</time>
      </trkpt>
      <trkpt lat="47.89912" lon="-3.91567">
        <ele>71</ele>
        <time>2017-05-30T17:35:12Z</time>
      </trkpt>
      <trkpt lat="47.89919" lon="-3.91567">
        <ele>71</ele>
        <time>2017-05-30T17:35:17Z</time>
      </trkpt>
      <trkpt lat="47.89925" lon="-3.91569">
        <ele>71</ele>
        <time>2017-05-30T17:35:22Z</time>
      </trkpt>
      <trkpt lat="47.89931" lon="-3.91568">
        <ele>71</ele>
        <time>2017-05-30T17:35:27Z</time>
      </trkpt>
      <trkpt lat="47.89948" lon="-3.91563">
        <ele>71</ele>
        <time>2017-05-30T17:35:38Z</time>
      </trkpt>
      <trkpt lat="47.89959" lon="-3.91564">
        <ele>71</ele>
        <time>2017-05-30T17:35:47Z</time>
      </trkpt>
      <trkpt lat="47.89963" lon="-3.91565">
        <ele>71</ele>
        <time>2017-05-30T17:35:52Z</time>
      </trkpt>
      <trkpt lat="47.89977" lon="-3.91563">
        <ele>71</ele>
        <time>2017-05-30T17:36:02Z</time>
      </trkpt>
      <trkpt lat="47.89991" lon="-3.91567">
        <ele>71</ele>
        <time>2017-05-30T17:36:12Z</time>
      </trkpt>
      <trkpt lat="47.89997" lon="-3.91566">
        <ele>71</ele>
        <time>2017-05-30T17:36:17Z</time>
      </trkpt>
      <trkpt lat="47.90001" lon="-3.91565">
        <ele>71</ele>
        <time>2017-05-30T17:36:22Z</time>
      </trkpt>
      <trkpt lat="47.90017" lon="-3.91561">
        <ele>71</ele>
        <time>2017-05-30T17:36:32Z</time>
      </trkpt>
      <trkpt lat="47.9002" lon="-3.91558">
        <ele>72</ele>
        <time>2017-05-30T17:36:37Z</time>
      </trkpt>
      <trkpt lat="47.90034" lon="-3.91552">
        <ele>72</ele>
        <time>2017-05-30T17:36:47Z</time>
      </trkpt>
      <trkpt lat="47.90065" lon="-3.91545">
        <ele>72</ele>
        <time>2017-05-30T17:37:07Z</time>
      </trkpt>
      <trkpt lat="47.90073" lon="-3.91546">
        <ele>72</ele>
        <time>2017-05-30T17:37:12Z</time>
      </trkpt>
      <trkpt lat="47.90074" lon="-3.91551">
        <ele>71</ele>
        <time>2017-05-30T17:37:17Z</time>
      </trkpt>
      <trkpt lat="47.90071" lon="-3.91552">
        <ele>71</ele>
        <time>2017-05-30T17:37:22Z</time>
      </trkpt>
      <trkpt lat="47.90063" lon="-3.91555">
        <ele>71</ele>
        <time>2017-05-30T17:37:32Z</time>
      </trkpt>
      <trkpt lat="47.90054" lon="-3.91557">
        <ele>71</ele>
        <time>2017-05-30T17:37:37Z</time>
      </trkpt>
      <trkpt lat="47.90048" lon="-3.91562">
        <ele>71</ele>
        <time>2017-05-30T17:37:42Z</time>
      </trkpt>
      <trkpt lat="47.90047" lon="-3.91562">
        <ele>71</ele>
        <time>2017-05-30T17:37:47Z</time>
      </trkpt>
      <trkpt lat="47.90047" lon="-3.91562">
        <ele>71</ele>
        <time>2017-05-30T17:37:52Z</time>
      </trkpt>
      <trkpt lat="47.90046" lon="-3.91563">
        <ele>71</ele>
        <time>2017-05-30T17:38:17Z</time>
      </trkpt>
      <trkpt lat="47.90045" lon="-3.91564">
        <ele>71</ele>
        <time>2017-05-30T17:38:27Z</time>
      </trkpt>
      <trkpt lat="47.90033" lon="-3.91572">
        <ele>71</ele>
        <time>2017-05-30T17:38:37Z</time>
      </trkpt>
      <trkpt lat="47.90017" lon="-3.9158">
        <ele>71</ele>
        <time>2017-05-30T17:38:47Z</time>
      </trkpt>
      <trkpt lat="47.90015" lon="-3.91585">
        <ele>71</ele>
        <time>2017-05-30T17:38:52Z</time>
      </trkpt>
      <trkpt lat="47.89997" lon="-3.91615">
        <ele>70</ele>
        <time>2017-05-30T17:39:07Z</time>
      </trkpt>
      <trkpt lat="47.89988" lon="-3.91631">
        <ele>70</ele>
        <time>2017-05-30T17:39:17Z</time>
      </trkpt>
      <trkpt lat="47.89982" lon="-3.91636">
        <ele>70</ele>
        <time>2017-05-30T17:39:22Z</time>
      </trkpt>
      <trkpt lat="47.89974" lon="-3.91639">
        <ele>70</ele>
        <time>2017-05-30T17:39:32Z</time>
      </trkpt>
      <trkpt lat="47.89971" lon="-3.91639">
        <ele>70</ele>
        <time>2017-05-30T17:39:37Z</time>
      </trkpt>
      <trkpt lat="47.89965" lon="-3.91645">
        <ele>69</ele>
        <time>2017-05-30T17:39:42Z</time>
      </trkpt>
      <trkpt lat="47.89957" lon="-3.91645">
        <ele>69</ele>
        <time>2017-05-30T17:39:47Z</time>
      </trkpt>
      <trkpt lat="47.89948" lon="-3.9165">
        <ele>69</ele>
        <time>2017-05-30T17:39:52Z</time>
      </trkpt>
      <trkpt lat="47.89938" lon="-3.91658">
        <ele>68</ele>
        <time>2017-05-30T17:40:02Z</time>
      </trkpt>
      <trkpt lat="47.89938" lon="-3.91658">
        <ele>68</ele>
        <time>2017-05-30T17:40:07Z</time>
      </trkpt>
      <trkpt lat="47.89937" lon="-3.91659">
        <ele>68</ele>
        <time>2017-05-30T17:40:12Z</time>
      </trkpt>
      <trkpt lat="47.89937" lon="-3.9167">
        <ele>68</ele>
        <time>2017-05-30T17:40:22Z</time>
      </trkpt>
      <trkpt lat="47.89939" lon="-3.91681">
        <ele>67</ele>
        <time>2017-05-30T17:40:32Z</time>
      </trkpt>
      <trkpt lat="47.8994" lon="-3.91691">
        <ele>67</ele>
        <time>2017-05-30T17:40:42Z</time>
      </trkpt>
      <trkpt lat="47.89939" lon="-3.91694">
        <ele>67</ele>
        <time>2017-05-30T17:40:47Z</time>
      </trkpt>
      <trkpt lat="47.89934" lon="-3.91699">
        <ele>67</ele>
        <time>2017-05-30T17:40:52Z</time>
      </trkpt>
      <trkpt lat="47.89927" lon="-3.91708">
        <ele>66</ele>
        <time>2017-05-30T17:41:02Z</time>
      </trkpt>
      <trkpt lat="47.89922" lon="-3.91708">
        <ele>66</ele>
        <time>2017-05-30T17:41:07Z</time>
      </trkpt>
      <trkpt lat="47.89921" lon="-3.91708">
        <ele>66</ele>
        <time>2017-05-30T17:41:12Z</time>
      </trkpt>
      <trkpt lat="47.89916" lon="-3.9171">
        <ele>65</ele>
        <time>2017-05-30T17:41:17Z</time>
      </trkpt>
      <trkpt lat="47.89912" lon="-3.91712">
        <ele>65</ele>
        <time>2017-05-30T17:41:23Z</time>
      </trkpt>
      <trkpt lat="47.89884" lon="-3.91717">
        <ele>64</ele>
        <time>2017-05-30T17:41:47Z</time>
      </trkpt>
      <trkpt lat="47.89878" lon="-3.91722">
        <ele>63</ele>
        <time>2017-05-30T17:41:52Z</time>
      </trkpt>
      <trkpt lat="47.89871" lon="-3.91729">
        <ele>62</ele>
        <time>2017-05-30T17:41:57Z</time>
      </trkpt>
      <trkpt lat="47.89865" lon="-3.91732">
        <ele>62</ele>
        <time>2017-05-30T17:42:02Z</time>
      </trkpt>
      <trkpt lat="47.8986" lon="-3.91739">
        <ele>62</ele>
        <time>2017-05-30T17:42:07Z</time>
      </trkpt>
      <trkpt lat="47.89859" lon="-3.91742">
        <ele>61</ele>
        <time>2017-05-30T17:42:22Z</time>
      </trkpt>
      <trkpt lat="47.89863" lon="-3.91748">
        <ele>62</ele>
        <time>2017-05-30T17:42:32Z</time>
      </trkpt>
      <trkpt lat="47.89865" lon="-3.91748">
        <ele>62</ele>
        <time>2017-05-30T17:42:37Z</time>
      </trkpt>
      <trkpt lat="47.89867" lon="-3.91749">
        <ele>62</ele>
        <time>2017-05-30T17:42:42Z</time>
      </trkpt>
      <trkpt lat="47.89872" lon="-3.91749">
        <ele>62</ele>
        <time>2017-05-30T17:42:47Z</time>
      </trkpt>
      <trkpt lat="47.8988" lon="-3.91751">
        <ele>63</ele>
        <time>2017-05-30T17:43:02Z</time>
      </trkpt>
      <trkpt lat="47.89884" lon="-3.9175">
        <ele>63</ele>
        <time>2017-05-30T17:43:07Z</time>
      </trkpt>
      <trkpt lat="47.89888" lon="-3.91752">
        <ele>63</ele>
        <time>2017-05-30T17:43:12Z</time>
      </trkpt>
      <trkpt lat="47.89894" lon="-3.91753">
        <ele>64</ele>
        <time>2017-05-30T17:43:17Z</time>
      </trkpt>
      <trkpt lat="47.89899" lon="-3.91752">
        <ele>64</ele>
        <time>2017-05-30T17:43:22Z</time>
      </trkpt>
      <trkpt lat="47.8991" lon="-3.91745">
        <ele>65</ele>
        <time>2017-05-30T17:43:32Z</time>
      </trkpt>
      <trkpt lat="47.89918" lon="-3.91747">
        <ele>65</ele>
        <time>2017-05-30T17:43:37Z</time>
      </trkpt>
      <trkpt lat="47.89925" lon="-3.91752">
        <ele>65</ele>
        <time>2017-05-30T17:43:42Z</time>
      </trkpt>
      <trkpt lat="47.89925" lon="-3.91753">
        <ele>65</ele>
        <time>2017-05-30T17:43:47Z</time>
      </trkpt>
      <trkpt lat="47.8994" lon="-3.91761">
        <ele>66</ele>
        <time>2017-05-30T17:43:57Z</time>
      </trkpt>
      <trkpt lat="47.8995" lon="-3.9176">
        <ele>67</ele>
        <time>2017-05-30T17:44:07Z</time>
      </trkpt>
      <trkpt lat="47.89959" lon="-3.9176">
        <ele>67</ele>
        <time>2017-05-30T17:44:12Z</time>
      </trkpt>
      <trkpt lat="47.89965" lon="-3.91758">
        <ele>67</ele>
        <time>2017-05-30T17:44:18Z</time>
      </trkpt>
      <trkpt lat="47.89968" lon="-3.91759">
        <ele>67</ele>
        <time>2017-05-30T17:44:22Z</time>
      </trkpt>
      <trkpt lat="47.89973" lon="-3.91762">
        <ele>67</ele>
        <time>2017-05-30T17:44:27Z</time>
      </trkpt>
      <trkpt lat="47.89978" lon="-3.91763">
        <ele>68</ele>
        <time>2017-05-30T17:44:32Z</time>
      </trkpt>
      <trkpt lat="47.89988" lon="-3.91762">
        <ele>68</ele>
        <time>2017-05-30T17:44:43Z</time>
      </trkpt>
      <trkpt lat="47.90006" lon="-3.91769">
        <ele>68</ele>
        <time>2017-05-30T17:45:02Z</time>
      </trkpt>
      <trkpt lat="47.90024" lon="-3.91772">
        <ele>68</ele>
        <time>2017-05-30T17:45:17Z</time>
      </trkpt>
      <trkpt lat="47.9003" lon="-3.91774">
        <ele>68</ele>
        <time>2017-05-30T17:45:22Z</time>
      </trkpt>
      <trkpt lat="47.90038" lon="-3.91778">
        <ele>69</ele>
        <time>2017-05-30T17:45:27Z</time>
      </trkpt>
      <trkpt lat="47.9005" lon="-3.91785">
        <ele>69</ele>
        <time>2017-05-30T17:45:37Z</time>
      </trkpt>
      <trkpt lat="47.90066" lon="-3.91793">
        <ele>69</ele>
        <time>2017-05-30T17:45:52Z</time>
      </trkpt>
      <trkpt lat="47.90072" lon="-3.91794">
        <ele>69</ele>
        <time>2017-05-30T17:45:57Z</time>
      </trkpt>
      <trkpt lat="47.90078" lon="-3.91797">
        <ele>70</ele>
        <time>2017-05-30T17:46:02Z</time>
      </trkpt>
      <trkpt lat="47.90084" lon="-3.91798">
        <ele>70</ele>
        <time>2017-05-30T17:46:07Z</time>
      </trkpt>
      <trkpt lat="47.90096" lon="-3.91802">
        <ele>70</ele>
        <time>2017-05-30T17:46:17Z</time>
      </trkpt>
      <trkpt lat="47.90102" lon="-3.91802">
        <ele>70</ele>
        <time>2017-05-30T17:46:22Z</time>
      </trkpt>
      <trkpt lat="47.90109" lon="-3.91802">
        <ele>70</ele>
        <time>2017-05-30T17:46:27Z</time>
      </trkpt>
      <trkpt lat="47.90129" lon="-3.91806">
        <ele>71</ele>
        <time>2017-05-30T17:46:42Z</time>
      </trkpt>
      <trkpt lat="47.90134" lon="-3.91808">
        <ele>71</ele>
        <time>2017-05-30T17:46:47Z</time>
      </trkpt>
      <trkpt lat="47.9014" lon="-3.9181">
        <ele>71</ele>
        <time>2017-05-30T17:46:52Z</time>
      </trkpt>
      <trkpt lat="47.90147" lon="-3.9181">
        <ele>72</ele>
        <time>2017-05-30T17:46:57Z</time>
      </trkpt>
      <trkpt lat="47.9016" lon="-3.91804">
        <ele>72</ele>
        <time>2017-05-30T17:47:07Z</time>
      </trkpt>
      <trkpt lat="47.90164" lon="-3.91806">
        <ele>72</ele>
        <time>2017-05-30T17:47:12Z</time>
      </trkpt>
      <trkpt lat="47.90167" lon="-3.91809">
        <ele>73</ele>
        <time>2017-05-30T17:47:17Z</time>
      </trkpt>
      <trkpt lat="47.90183" lon="-3.91814">
        <ele>73</ele>
        <time>2017-05-30T17:47:27Z</time>
      </trkpt>
      <trkpt lat="47.90191" lon="-3.91816">
        <ele>73</ele>
        <time>2017-05-30T17:47:32Z</time>
      </trkpt>
      <trkpt lat="47.90197" lon="-3.91816">
        <ele>73</ele>
        <time>2017-05-30T17:47:37Z</time>
      </trkpt>
      <trkpt lat="47.90214" lon="-3.91818">
        <ele>74</ele>
        <time>2017-05-30T17:47:52Z</time>
      </trkpt>
      <trkpt lat="47.90219" lon="-3.91821">
        <ele>74</ele>
        <time>2017-05-30T17:47:57Z</time>
      </trkpt>
      <trkpt lat="47.90222" lon="-3.91823">
        <ele>74</ele>
        <time>2017-05-30T17:48:02Z</time>
      </trkpt>
      <trkpt lat="47.90244" lon="-3.91827">
        <ele>74</ele>
        <time>2017-05-30T17:48:17Z</time>
      </trkpt>
      <trkpt lat="47.9025" lon="-3.91827">
        <ele>74</ele>
        <time>2017-05-30T17:48:22Z</time>
      </trkpt>
      <trkpt lat="47.90264" lon="-3.91834">
        <ele>74</ele>
        <time>2017-05-30T17:48:32Z</time>
      </trkpt>
      <trkpt lat="47.90301" lon="-3.91844">
        <ele>75</ele>
        <time>2017-05-30T17:48:57Z</time>
      </trkpt>
      <trkpt lat="47.90315" lon="-3.91844">
        <ele>76</ele>
        <time>2017-05-30T17:49:07Z</time>
      </trkpt>
      <trkpt lat="47.90323" lon="-3.91849">
        <ele>76</ele>
        <time>2017-05-30T17:49:12Z</time>
      </trkpt>
      <trkpt lat="47.90333" lon="-3.91853">
        <ele>76</ele>
        <time>2017-05-30T17:49:22Z</time>
      </trkpt>
      <trkpt lat="47.90336" lon="-3.91855">
        <ele>76</ele>
        <time>2017-05-30T17:49:27Z</time>
      </trkpt>
      <trkpt lat="47.90343" lon="-3.91852">
        <ele>76</ele>
        <time>2017-05-30T17:49:32Z</time>
      </trkpt>
      <trkpt lat="47.90363" lon="-3.91831">
        <ele>77</ele>
        <time>2017-05-30T17:49:47Z</time>
      </trkpt>
      <trkpt lat="47.90372" lon="-3.91826">
        <ele>77</ele>
        <time>2017-05-30T17:49:52Z</time>
      </trkpt>
      <trkpt lat="47.90378" lon="-3.91827">
        <ele>77</ele>
        <time>2017-05-30T17:49:58Z</time>
      </trkpt>
      <trkpt lat="47.90382" lon="-3.9183">
        <ele>77</ele>
        <time>2017-05-30T17:50:02Z</time>
      </trkpt>
      <trkpt lat="47.90393" lon="-3.9183">
        <ele>77</ele>
        <time>2017-05-30T17:50:12Z</time>
      </trkpt>
      <trkpt lat="47.9042" lon="-3.91836">
        <ele>78</ele>
        <time>2017-05-30T17:50:32Z</time>
      </trkpt>
      <trkpt lat="47.90426" lon="-3.91842">
        <ele>78</ele>
        <time>2017-05-30T17:50:37Z</time>
      </trkpt>
      <trkpt lat="47.90428" lon="-3.91855">
        <ele>78</ele>
        <time>2017-05-30T17:50:42Z</time>
      </trkpt>
      <trkpt lat="47.90429" lon="-3.91866">
        <ele>78</ele>
        <time>2017-05-30T17:50:47Z</time>
      </trkpt>
      <trkpt lat="47.90429" lon="-3.91876">
        <ele>78</ele>
        <time>2017-05-30T17:50:52Z</time>
      </trkpt>
      <trkpt lat="47.90426" lon="-3.91899">
        <ele>78</ele>
        <time>2017-05-30T17:51:07Z</time>
      </trkpt>
      <trkpt lat="47.90428" lon="-3.91918">
        <ele>78</ele>
        <time>2017-05-30T17:51:17Z</time>
      </trkpt>
      <trkpt lat="47.9043" lon="-3.91927">
        <ele>78</ele>
        <time>2017-05-30T17:51:22Z</time>
      </trkpt>
      <trkpt lat="47.90432" lon="-3.91934">
        <ele>78</ele>
        <time>2017-05-30T17:51:27Z</time>
      </trkpt>
      <trkpt lat="47.90439" lon="-3.91942">
        <ele>78</ele>
        <time>2017-05-30T17:51:37Z</time>
      </trkpt>
    </trkseg>
  </trk>
</gpx>